<?xml version='1.0' encoding='UTF-8'?><gpx version="1.1" creator="JPX - https://github.com/jenetics/jpx" xmlns="http://www.topografix.com/GPX/1/1"><trk><trkseg><trkpt lat="43.981469432643294" lon="10.146923011890882"><ele>2.9999999999999996</ele><time>2026-04-05T15:31:35Z</time></trkpt><trkpt lat="43.98142802717844" lon="10.146835245865336"><ele>3.0</ele><time>2026-04-05T15:31:41Z</time></trkpt><trkpt lat="43.98138146464634" lon="10.14676899093567"><ele>3.0</ele><time>2026-04-05T15:31:47Z</time></trkpt><trkpt lat="43.98134804116364" lon="10.146688113187407"><ele>3.0</ele><time>2026-04-05T15:31:54Z</time></trkpt><trkpt lat="43.981311417084555" lon="10.146601382796469"><ele>3.0</ele><time>2026-04-05T15:32:00Z</time></trkpt><trkpt lat="43.981256281194234" lon="10.146545785568525"><ele>2.9999999999999996</ele><time>2026-04-05T15:32:06Z</time></trkpt><trkpt lat="43.98121010934054" lon="10.14647266469246"><ele>3.0</ele><time>2026-04-05T15:32:13Z</time></trkpt><trkpt lat="43.981162324888366" lon="10.146402458317942"><ele>2.9999999999999996</ele><time>2026-04-05T15:32:20Z</time></trkpt><trkpt lat="43.98110747251556" lon="10.14633547550164"><ele>3.0</ele><time>2026-04-05T15:32:27Z</time></trkpt><trkpt lat="43.9810686045586" lon="10.146262929657476"><ele>3.0</ele><time>2026-04-05T15:32:34Z</time></trkpt><trkpt lat="43.98102305438614" lon="10.146184234832843"><ele>3.0</ele><time>2026-04-05T15:32:41Z</time></trkpt><trkpt lat="43.98097569040706" lon="10.146117033351505"><ele>3.0</ele><time>2026-04-05T15:32:47Z</time></trkpt><trkpt lat="43.98093608335999" lon="10.146034733005031"><ele>2.9999999999999996</ele><time>2026-04-05T15:32:54Z</time></trkpt><trkpt lat="43.98089193903317" lon="10.145958204887787"><ele>3.0</ele><time>2026-04-05T15:32:59Z</time></trkpt><trkpt lat="43.980837874932405" lon="10.145891151219036"><ele>2.8571428571428568</ele><time>2026-04-05T15:33:08Z</time></trkpt><trkpt lat="43.98078489290483" lon="10.145811458164046"><ele>2.7142857142857144</ele><time>2026-04-05T15:33:14Z</time></trkpt><trkpt lat="43.98073662095964" lon="10.145744187879163"><ele>2.571428571428571</ele><time>2026-04-05T15:33:20Z</time></trkpt><trkpt lat="43.98068285325437" lon="10.145676111463045"><ele>2.4285714285714284</ele><time>2026-04-05T15:33:27Z</time></trkpt><trkpt lat="43.98064485225294" lon="10.145604601774707"><ele>2.2857142857142856</ele><time>2026-04-05T15:33:32Z</time></trkpt><trkpt lat="43.980591154900175" lon="10.145536924421428"><ele>2.142857142857143</ele><time>2026-04-05T15:33:39Z</time></trkpt><trkpt lat="43.98054727118919" lon="10.145465471348988"><ele>2.0</ele><time>2026-04-05T15:33:46Z</time></trkpt><trkpt lat="43.980498672263515" lon="10.145394169408204"><ele>2.0</ele><time>2026-04-05T15:33:52Z</time></trkpt><trkpt lat="43.98045173211033" lon="10.145330590049927"><ele>1.9999999999999998</ele><time>2026-04-05T15:33:58Z</time></trkpt><trkpt lat="43.980406660106" lon="10.14526083735028"><ele>2.0</ele><time>2026-04-05T15:34:04Z</time></trkpt><trkpt lat="43.98037546353674" lon="10.145184203627373"><ele>2.0</ele><time>2026-04-05T15:34:11Z</time></trkpt><trkpt lat="43.980324036325165" lon="10.145102470614786"><ele>1.9999999999999998</ele><time>2026-04-05T15:34:16Z</time></trkpt><trkpt lat="43.98027584312056" lon="10.14502415711982"><ele>2.0</ele><time>2026-04-05T15:34:23Z</time></trkpt><trkpt lat="43.9802100933588" lon="10.144964557484846"><ele>2.0</ele><time>2026-04-05T15:34:29Z</time></trkpt><trkpt lat="43.9801477977209" lon="10.144923933794269"><ele>2.142857142857143</ele><time>2026-04-05T15:34:38Z</time></trkpt><trkpt lat="43.98011036465847" lon="10.14485337290652"><ele>2.2857142857142856</ele><time>2026-04-05T15:34:43Z</time></trkpt><trkpt lat="43.980065968506224" lon="10.144776992461804"><ele>2.4285714285714284</ele><time>2026-04-05T15:34:50Z</time></trkpt><trkpt lat="43.97999679750157" lon="10.144730830222473"><ele>2.571428571428571</ele><time>2026-04-05T15:34:56Z</time></trkpt><trkpt lat="43.979956000922584" lon="10.144659396636394"><ele>2.7142857142857144</ele><time>2026-04-05T15:35:02Z</time></trkpt><trkpt lat="43.97991958930439" lon="10.144580668333278"><ele>2.8571428571428568</ele><time>2026-04-05T15:35:08Z</time></trkpt><trkpt lat="43.97985101617911" lon="10.144583441034055"><ele>3.0</ele><time>2026-04-05T15:35:16Z</time></trkpt><trkpt lat="43.979802240867144" lon="10.144652099300636"><ele>2.9999999999999996</ele><time>2026-04-05T15:35:22Z</time></trkpt><trkpt lat="43.97975243754542" lon="10.144706925263948"><ele>3.0</ele><time>2026-04-05T15:35:27Z</time></trkpt><trkpt lat="43.979697746525" lon="10.144760117354169"><ele>3.0</ele><time>2026-04-05T15:35:33Z</time></trkpt><trkpt lat="43.97965197062217" lon="10.144824142509488"><ele>3.0</ele><time>2026-04-05T15:35:39Z</time></trkpt><trkpt lat="43.97959469003244" lon="10.144881995071485"><ele>3.0</ele><time>2026-04-05T15:35:46Z</time></trkpt><trkpt lat="43.979550557375184" lon="10.144944880077109"><ele>2.9999999999999996</ele><time>2026-04-05T15:35:52Z</time></trkpt><trkpt lat="43.97949770839435" lon="10.145004354407918"><ele>3.0</ele><time>2026-04-05T15:35:58Z</time></trkpt><trkpt lat="43.979453906415856" lon="10.145079039941345"><ele>2.9999999999999996</ele><time>2026-04-05T15:36:23Z</time></trkpt><trkpt lat="43.97940325688822" lon="10.14513841074654"><ele>3.0</ele><time>2026-04-05T15:36:30Z</time></trkpt><trkpt lat="43.97934926335209" lon="10.145193057216703"><ele>3.0</ele><time>2026-04-05T15:36:37Z</time></trkpt><trkpt lat="43.97929367442694" lon="10.145244382510079"><ele>3.0</ele><time>2026-04-05T15:36:44Z</time></trkpt><trkpt lat="43.979249891409324" lon="10.145316793175462"><ele>3.0</ele><time>2026-04-05T15:36:50Z</time></trkpt><trkpt lat="43.979195691666895" lon="10.145374977695862"><ele>2.9999999999999996</ele><time>2026-04-05T15:36:56Z</time></trkpt><trkpt lat="43.97913585690214" lon="10.14542459428621"><ele>3.0</ele><time>2026-04-05T15:37:03Z</time></trkpt><trkpt lat="43.97907283080961" lon="10.145466147154151"><ele>2.9999999999999996</ele><time>2026-04-05T15:37:10Z</time></trkpt><trkpt lat="43.97901966571106" lon="10.145524753859476"><ele>3.0</ele><time>2026-04-05T15:37:16Z</time></trkpt><trkpt lat="43.97898264168484" lon="10.14559765722864"><ele>3.0</ele><time>2026-04-05T15:37:22Z</time></trkpt><trkpt lat="43.97892993982714" lon="10.14565226434853"><ele>3.0</ele><time>2026-04-05T15:37:28Z</time></trkpt><trkpt lat="43.97887820669559" lon="10.145708078339146"><ele>3.0</ele><time>2026-04-05T15:37:34Z</time></trkpt><trkpt lat="43.97882788278234" lon="10.145778313731704"><ele>2.9999999999999996</ele><time>2026-04-05T15:37:40Z</time></trkpt><trkpt lat="43.97876967861838" lon="10.145839163253953"><ele>3.0</ele><time>2026-04-05T15:37:47Z</time></trkpt><trkpt lat="43.97871648731593" lon="10.145895453573772"><ele>3.1428571428571423</ele><time>2026-04-05T15:37:53Z</time></trkpt><trkpt lat="43.97866282004465" lon="10.145966275568034"><ele>3.2857142857142856</ele><time>2026-04-05T15:38:00Z</time></trkpt><trkpt lat="43.97860304625897" lon="10.146025159827968"><ele>3.4285714285714284</ele><time>2026-04-05T15:38:08Z</time></trkpt><trkpt lat="43.978547139999286" lon="10.146090276274885"><ele>3.571428571428571</ele><time>2026-04-05T15:38:15Z</time></trkpt><trkpt lat="43.97847867618397" lon="10.146081029323119"><ele>3.714285714285714</ele><time>2026-04-05T15:38:21Z</time></trkpt><trkpt lat="43.97844890087462" lon="10.146172961952816"><ele>3.8571428571428568</ele><time>2026-04-05T15:38:27Z</time></trkpt><trkpt lat="43.97838232771155" lon="10.146226462104899"><ele>4.0</ele><time>2026-04-05T15:38:36Z</time></trkpt><trkpt lat="43.97830959212214" lon="10.146246246071682"><ele>4.142857142857142</ele><time>2026-04-05T15:38:45Z</time></trkpt><trkpt lat="43.97824265870394" lon="10.146232799675145"><ele>4.285714285714286</ele><time>2026-04-05T15:38:52Z</time></trkpt><trkpt lat="43.97817921338532" lon="10.146225896472234"><ele>4.428571428571429</ele><time>2026-04-05T15:38:57Z</time></trkpt><trkpt lat="43.978109951068" lon="10.146235107396663"><ele>4.571428571428571</ele><time>2026-04-05T15:39:03Z</time></trkpt><trkpt lat="43.97804810469124" lon="10.146209149970975"><ele>4.714285714285714</ele><time>2026-04-05T15:39:11Z</time></trkpt><trkpt lat="43.97801560904815" lon="10.146133241975576"><ele>4.857142857142857</ele><time>2026-04-05T15:39:19Z</time></trkpt><trkpt lat="43.97794052741726" lon="10.146107128242829"><ele>5.0</ele><time>2026-04-05T15:39:31Z</time></trkpt><trkpt lat="43.97787816426221" lon="10.146137492049732"><ele>5.0</ele><time>2026-04-05T15:39:38Z</time></trkpt><trkpt lat="43.97784035799945" lon="10.146214023561136"><ele>5.0</ele><time>2026-04-05T15:39:45Z</time></trkpt><trkpt lat="43.977829407759096" lon="10.146304000791222"><ele>5.0</ele><time>2026-04-05T15:42:33Z</time></trkpt><trkpt lat="43.97777492742213" lon="10.146359809588027"><ele>5.0</ele><time>2026-04-05T15:42:39Z</time></trkpt><trkpt lat="43.977787186182795" lon="10.14644932082699"><ele>5.0</ele><time>2026-04-05T15:43:02Z</time></trkpt><trkpt lat="43.97779635546417" lon="10.14653835978276"><ele>5.0</ele><time>2026-04-05T15:43:10Z</time></trkpt><trkpt lat="43.97778552578375" lon="10.146636937587287"><ele>5.0</ele><time>2026-04-05T15:43:23Z</time></trkpt><trkpt lat="43.97781621888639" lon="10.146714906113838"><ele>4.857142857142857</ele><time>2026-04-05T15:43:26Z</time></trkpt><trkpt lat="43.97781606566998" lon="10.146808684882421"><ele>4.714285714285714</ele><time>2026-04-05T15:43:32Z</time></trkpt><trkpt lat="43.97776642288885" lon="10.146868945433786"><ele>4.571428571428571</ele><time>2026-04-05T15:43:39Z</time></trkpt><trkpt lat="43.97768760217439" lon="10.146885184646381"><ele>4.428571428571429</ele><time>2026-04-05T15:43:46Z</time></trkpt><trkpt lat="43.977637652790214" lon="10.14696128968711"><ele>4.285714285714286</ele><time>2026-04-05T15:43:53Z</time></trkpt><trkpt lat="43.97759591073561" lon="10.147043089248072"><ele>4.142857142857142</ele><time>2026-04-05T15:43:59Z</time></trkpt><trkpt lat="43.97753993462516" lon="10.14710783753163"><ele>4.0</ele><time>2026-04-05T15:44:06Z</time></trkpt><trkpt lat="43.97749171760017" lon="10.147176765153686"><ele>4.0</ele><time>2026-04-05T15:44:12Z</time></trkpt><trkpt lat="43.97742639634877" lon="10.147159933622497"><ele>3.9999999999999996</ele><time>2026-04-05T15:44:25Z</time></trkpt><trkpt lat="43.97741314304067" lon="10.14705701922123"><ele>4.0</ele><time>2026-04-05T15:44:33Z</time></trkpt><trkpt lat="43.977383587158805" lon="10.146968344173235"><ele>4.0</ele><time>2026-04-05T15:44:39Z</time></trkpt><trkpt lat="43.97733922109798" lon="10.14690084351855"><ele>3.9999999999999996</ele><time>2026-04-05T15:44:44Z</time></trkpt><trkpt lat="43.97732328182473" lon="10.146814946172736"><ele>4.0</ele><time>2026-04-05T15:44:50Z</time></trkpt><trkpt lat="43.97728796330856" lon="10.146731443003818"><ele>4.0</ele><time>2026-04-05T15:44:58Z</time></trkpt><trkpt lat="43.97726013687564" lon="10.146652497706187"><ele>4.0</ele><time>2026-04-05T15:45:04Z</time></trkpt><trkpt lat="43.977203191345495" lon="10.146583803027676"><ele>3.9999999999999996</ele><time>2026-04-05T15:45:10Z</time></trkpt><trkpt lat="43.97717736439123" lon="10.146497500647753"><ele>4.0</ele><time>2026-04-05T15:45:17Z</time></trkpt><trkpt lat="43.97712738616075" lon="10.146433189888878"><ele>4.0</ele><time>2026-04-05T15:45:23Z</time></trkpt><trkpt lat="43.97708171268447" lon="10.14635297905698"><ele>3.9999999999999996</ele><time>2026-04-05T15:45:29Z</time></trkpt><trkpt lat="43.97704430295034" lon="10.146279446543149"><ele>4.0</ele><time>2026-04-05T15:45:36Z</time></trkpt><trkpt lat="43.97700839567321" lon="10.146200985495131"><ele>4.0</ele><time>2026-04-05T15:45:42Z</time></trkpt><trkpt lat="43.97697723146843" lon="10.146122389640983"><ele>4.0</ele><time>2026-04-05T15:45:48Z</time></trkpt><trkpt lat="43.97692178362039" lon="10.146061156304917"><ele>3.9999999999999996</ele><time>2026-04-05T15:45:53Z</time></trkpt><trkpt lat="43.97690811947429" lon="10.145973376756041"><ele>4.0</ele><time>2026-04-05T15:45:59Z</time></trkpt><trkpt lat="43.97687729070156" lon="10.145883479497988"><ele>4.0</ele><time>2026-04-05T15:46:05Z</time></trkpt><trkpt lat="43.97683761463668" lon="10.145808020626541"><ele>3.9999999999999996</ele><time>2026-04-05T15:46:11Z</time></trkpt><trkpt lat="43.976800623169574" lon="10.145725836898114"><ele>4.0</ele><time>2026-04-05T15:46:18Z</time></trkpt><trkpt lat="43.97676434967283" lon="10.145640248793566"><ele>4.0</ele><time>2026-04-05T15:46:24Z</time></trkpt><trkpt lat="43.97673554036816" lon="10.14555860909297"><ele>4.0</ele><time>2026-04-05T15:46:29Z</time></trkpt><trkpt lat="43.976713275719526" lon="10.145457746230168"><ele>3.9999999999999996</ele><time>2026-04-05T15:46:36Z</time></trkpt><trkpt lat="43.976639515448824" lon="10.145440493153437"><ele>4.0</ele><time>2026-04-05T15:46:41Z</time></trkpt><trkpt lat="43.97657071035673" lon="10.145472300416806"><ele>4.0</ele><time>2026-04-05T15:46:45Z</time></trkpt><trkpt lat="43.976514818382825" lon="10.145522222683143"><ele>3.9999999999999996</ele><time>2026-04-05T15:46:51Z</time></trkpt><trkpt lat="43.97646737804078" lon="10.145605097953169"><ele>4.0</ele><time>2026-04-05T15:46:56Z</time></trkpt><trkpt lat="43.97641860727933" lon="10.14567926303725"><ele>4.0</ele><time>2026-04-05T15:47:03Z</time></trkpt><trkpt lat="43.976359915123844" lon="10.14573615493082"><ele>4.285714285714286</ele><time>2026-04-05T15:47:10Z</time></trkpt><trkpt lat="43.97629829381892" lon="10.145784922328843"><ele>4.571428571428571</ele><time>2026-04-05T15:47:16Z</time></trkpt><trkpt lat="43.97625680543514" lon="10.145861410968568"><ele>4.857142857142857</ele><time>2026-04-05T15:47:26Z</time></trkpt><trkpt lat="43.97621182325923" lon="10.145931578233483"><ele>5.142857142857142</ele><time>2026-04-05T15:47:32Z</time></trkpt><trkpt lat="43.976151170167455" lon="10.145978018620559"><ele>5.428571428571429</ele><time>2026-04-05T15:47:38Z</time></trkpt><trkpt lat="43.97609787442344" lon="10.146026889347194"><ele>5.7142857142857135</ele><time>2026-04-05T15:47:44Z</time></trkpt><trkpt lat="43.976054722908536" lon="10.146092417133435"><ele>6.0</ele><time>2026-04-05T15:47:50Z</time></trkpt><trkpt lat="43.976011455702505" lon="10.146161581657905"><ele>5.999999999999999</ele><time>2026-04-05T15:47:55Z</time></trkpt><trkpt lat="43.97596072335316" lon="10.146237058600283"><ele>6.0</ele><time>2026-04-05T15:48:02Z</time></trkpt><trkpt lat="43.97589914025326" lon="10.146297480758122"><ele>6.0</ele><time>2026-04-05T15:48:09Z</time></trkpt><trkpt lat="43.97584082040651" lon="10.146362447347595"><ele>6.0</ele><time>2026-04-05T15:48:16Z</time></trkpt><trkpt lat="43.9757849138509" lon="10.146435445717378"><ele>6.0</ele><time>2026-04-05T15:48:23Z</time></trkpt><trkpt lat="43.97573627666458" lon="10.146496384570845"><ele>5.999999999999999</ele><time>2026-04-05T15:48:29Z</time></trkpt><trkpt lat="43.975674775283416" lon="10.146558237214194"><ele>6.0</ele><time>2026-04-05T15:48:36Z</time></trkpt><trkpt lat="43.97561849796054" lon="10.146598249339728"><ele>5.571428571428571</ele><time>2026-04-05T15:48:42Z</time></trkpt><trkpt lat="43.97557940434314" lon="10.146675179290842"><ele>5.142857142857142</ele><time>2026-04-05T15:48:48Z</time></trkpt><trkpt lat="43.97552954350751" lon="10.146731460689752"><ele>4.7142857142857135</ele><time>2026-04-05T15:48:54Z</time></trkpt><trkpt lat="43.97547678212362" lon="10.146795858357025"><ele>4.285714285714286</ele><time>2026-04-05T15:48:59Z</time></trkpt><trkpt lat="43.97541592989991" lon="10.146853637899723"><ele>3.8571428571428568</ele><time>2026-04-05T15:49:07Z</time></trkpt><trkpt lat="43.97536428644709" lon="10.146916215604554"><ele>3.4285714285714284</ele><time>2026-04-05T15:49:13Z</time></trkpt><trkpt lat="43.97532274465257" lon="10.14698770939996"><ele>3.0</ele><time>2026-04-05T15:49:19Z</time></trkpt><trkpt lat="43.97527341305334" lon="10.147050747777776"><ele>2.9999999999999996</ele><time>2026-04-05T15:49:25Z</time></trkpt><trkpt lat="43.97521744306501" lon="10.147126221842836"><ele>3.0</ele><time>2026-04-05T15:49:32Z</time></trkpt><trkpt lat="43.97515266943953" lon="10.14716613035022"><ele>3.0</ele><time>2026-04-05T15:49:38Z</time></trkpt><trkpt lat="43.975106857623196" lon="10.147237284146367"><ele>3.0</ele><time>2026-04-05T15:49:44Z</time></trkpt><trkpt lat="43.97505438178547" lon="10.147299450914112"><ele>3.0</ele><time>2026-04-05T15:49:50Z</time></trkpt><trkpt lat="43.97499845002785" lon="10.147355645619308"><ele>2.9999999999999996</ele><time>2026-04-05T15:49:55Z</time></trkpt><trkpt lat="43.97494525709989" lon="10.147405545676513"><ele>3.0</ele><time>2026-04-05T15:50:01Z</time></trkpt><trkpt lat="43.97489478627451" lon="10.147458597971147"><ele>2.2857142857142856</ele><time>2026-04-05T15:50:06Z</time></trkpt><trkpt lat="43.9748392179024" lon="10.147528548732767"><ele>1.5714285714285714</ele><time>2026-04-05T15:50:13Z</time></trkpt><trkpt lat="43.97478761332216" lon="10.147593920306868"><ele>0.8571428571428571</ele><time>2026-04-05T15:50:19Z</time></trkpt><trkpt lat="43.97473779787944" lon="10.147661137834316"><ele>0.1428571428571428</ele><time>2026-04-05T15:50:25Z</time></trkpt><trkpt lat="43.9746863011354" lon="10.147726970067383"><ele>-0.5714285714285713</ele><time>2026-04-05T15:50:31Z</time></trkpt><trkpt lat="43.974633202495305" lon="10.147790462105466"><ele>-1.2857142857142856</ele><time>2026-04-05T15:50:37Z</time></trkpt><trkpt lat="43.97457619002575" lon="10.147851238984904"><ele>-2.0</ele><time>2026-04-05T15:50:43Z</time></trkpt><trkpt lat="43.97452136247226" lon="10.147918385496364"><ele>-2.0</ele><time>2026-04-05T15:50:50Z</time></trkpt><trkpt lat="43.97446810442614" lon="10.147971092294487"><ele>-1.9999999999999998</ele><time>2026-04-05T15:50:56Z</time></trkpt><trkpt lat="43.9744205547037" lon="10.148035920879481"><ele>-2.0</ele><time>2026-04-05T15:51:02Z</time></trkpt><trkpt lat="43.97437437059965" lon="10.148099639769883"><ele>-2.0</ele><time>2026-04-05T15:51:08Z</time></trkpt><trkpt lat="43.97432027208609" lon="10.148168987411584"><ele>-1.9999999999999998</ele><time>2026-04-05T15:51:15Z</time></trkpt><trkpt lat="43.97425909405536" lon="10.148231346374017"><ele>-2.0</ele><time>2026-04-05T15:51:22Z</time></trkpt><trkpt lat="43.97420023099095" lon="10.148302571612257"><ele>-2.0</ele><time>2026-04-05T15:51:28Z</time></trkpt><trkpt lat="43.9741491802114" lon="10.148364111574553"><ele>-1.857142857142857</ele><time>2026-04-05T15:51:35Z</time></trkpt><trkpt lat="43.97408822965839" lon="10.148419360640716"><ele>-1.714285714285714</ele><time>2026-04-05T15:51:41Z</time></trkpt><trkpt lat="43.97404021011796" lon="10.148487981861438"><ele>-1.5714285714285714</ele><time>2026-04-05T15:51:47Z</time></trkpt><trkpt lat="43.97398294575708" lon="10.148545272032276"><ele>-1.4285714285714284</ele><time>2026-04-05T15:51:53Z</time></trkpt><trkpt lat="43.97394586190272" lon="10.14861758207848"><ele>-1.2857142857142856</ele><time>2026-04-05T15:51:58Z</time></trkpt><trkpt lat="43.973893229196186" lon="10.148669029934139"><ele>-1.1428571428571428</ele><time>2026-04-05T15:52:05Z</time></trkpt><trkpt lat="43.97383271714446" lon="10.148720627191947"><ele>-1.0</ele><time>2026-04-05T15:52:11Z</time></trkpt><trkpt lat="43.973794452157776" lon="10.14879416713447"><ele>-1.0</ele><time>2026-04-05T15:52:24Z</time></trkpt><trkpt lat="43.97373255984363" lon="10.148829015098162"><ele>-0.9999999999999999</ele><time>2026-04-05T15:52:31Z</time></trkpt><trkpt lat="43.97368491172827" lon="10.148898727398668"><ele>-1.0</ele><time>2026-04-05T15:52:37Z</time></trkpt><trkpt lat="43.97363963025587" lon="10.14896139746714"><ele>-1.0</ele><time>2026-04-05T15:52:43Z</time></trkpt><trkpt lat="43.97359749527436" lon="10.149032650294854"><ele>-0.9999999999999999</ele><time>2026-04-05T15:52:48Z</time></trkpt><trkpt lat="43.97354118078686" lon="10.149080971727734"><ele>-1.0</ele><time>2026-04-05T15:52:54Z</time></trkpt><trkpt lat="43.97349336384033" lon="10.149153429904107"><ele>-1.0</ele><time>2026-04-05T15:53:00Z</time></trkpt><trkpt lat="43.97344544379912" lon="10.149213516357252"><ele>-0.5714285714285714</ele><time>2026-04-05T15:53:06Z</time></trkpt><trkpt lat="43.973386216699836" lon="10.149273440163517"><ele>-0.1428571428571428</ele><time>2026-04-05T15:53:13Z</time></trkpt><trkpt lat="43.973335367563415" lon="10.14933639064143"><ele>0.2857142857142857</ele><time>2026-04-05T15:53:19Z</time></trkpt><trkpt lat="43.97328712737121" lon="10.149394423711325"><ele>0.7142857142857142</ele><time>2026-04-05T15:53:25Z</time></trkpt><trkpt lat="43.97323598419532" lon="10.149448791727744"><ele>1.1428571428571428</ele><time>2026-04-05T15:53:31Z</time></trkpt><trkpt lat="43.97318653183194" lon="10.149505987357122"><ele>1.5714285714285714</ele><time>2026-04-05T15:53:37Z</time></trkpt><trkpt lat="43.97313750383021" lon="10.149566321600908"><ele>2.0</ele><time>2026-04-05T15:53:43Z</time></trkpt><trkpt lat="43.973090990783945" lon="10.149626185671494"><ele>2.142857142857143</ele><time>2026-04-05T15:53:49Z</time></trkpt><trkpt lat="43.97303326625876" lon="10.149672538754347"><ele>2.2857142857142856</ele><time>2026-04-05T15:53:55Z</time></trkpt><trkpt lat="43.972994764460346" lon="10.149744935387053"><ele>2.4285714285714284</ele><time>2026-04-05T15:54:00Z</time></trkpt><trkpt lat="43.97293183531237" lon="10.149806130996634"><ele>2.571428571428571</ele><time>2026-04-05T15:54:07Z</time></trkpt><trkpt lat="43.972889200748284" lon="10.149876515820724"><ele>2.7142857142857144</ele><time>2026-04-05T15:54:13Z</time></trkpt><trkpt lat="43.972838360271126" lon="10.149928127401084"><ele>2.8571428571428568</ele><time>2026-04-05T15:54:19Z</time></trkpt><trkpt lat="43.972784761036635" lon="10.149995276019858"><ele>3.0</ele><time>2026-04-05T15:54:26Z</time></trkpt><trkpt lat="43.97273298712233" lon="10.15006180890435"><ele>2.714285714285714</ele><time>2026-04-05T15:54:32Z</time></trkpt><trkpt lat="43.972673381731965" lon="10.15012701850995"><ele>2.4285714285714284</ele><time>2026-04-05T15:54:39Z</time></trkpt><trkpt lat="43.972618587148474" lon="10.150193706100424"><ele>2.142857142857143</ele><time>2026-04-05T15:54:46Z</time></trkpt><trkpt lat="43.972564011520184" lon="10.150242305440965"><ele>1.857142857142857</ele><time>2026-04-05T15:54:52Z</time></trkpt><trkpt lat="43.9725054677156" lon="10.150318101348752"><ele>1.5714285714285712</ele><time>2026-04-05T15:54:59Z</time></trkpt><trkpt lat="43.97244717173104" lon="10.150369604890795"><ele>1.2857142857142856</ele><time>2026-04-05T15:55:05Z</time></trkpt><trkpt lat="43.97238721437233" lon="10.15042136387023"><ele>1.0</ele><time>2026-04-05T15:55:12Z</time></trkpt><trkpt lat="43.97234652448404" lon="10.150507023605236"><ele>1.0</ele><time>2026-04-05T15:55:18Z</time></trkpt><trkpt lat="43.972290958185184" lon="10.150556592331768"><ele>0.9999999999999999</ele><time>2026-04-05T15:55:24Z</time></trkpt><trkpt lat="43.97224701162594" lon="10.150622316915474"><ele>1.0</ele><time>2026-04-05T15:55:30Z</time></trkpt><trkpt lat="43.972206913529625" lon="10.150693112782191"><ele>1.0</ele><time>2026-04-05T15:55:35Z</time></trkpt><trkpt lat="43.97215012762133" lon="10.150751008519272"><ele>0.9999999999999999</ele><time>2026-04-05T15:55:42Z</time></trkpt><trkpt lat="43.97209906565096" lon="10.150803631663102"><ele>1.0</ele><time>2026-04-05T15:55:47Z</time></trkpt><trkpt lat="43.97203669654914" lon="10.150861729137592"><ele>1.0</ele><time>2026-04-05T15:55:54Z</time></trkpt><trkpt lat="43.971992651361425" lon="10.150935406954199"><ele>1.0</ele><time>2026-04-05T15:56:00Z</time></trkpt><trkpt lat="43.97192720251496" lon="10.15098637759376"><ele>0.9999999999999999</ele><time>2026-04-05T15:56:07Z</time></trkpt><trkpt lat="43.97187088416592" lon="10.151031903348802"><ele>1.0</ele><time>2026-04-05T15:56:13Z</time></trkpt><trkpt lat="43.97182298364337" lon="10.151118870193923"><ele>1.0</ele><time>2026-04-05T15:56:20Z</time></trkpt><trkpt lat="43.97177255758058" lon="10.151185588573487"><ele>0.9999999999999999</ele><time>2026-04-05T15:56:27Z</time></trkpt><trkpt lat="43.97172026025974" lon="10.151237568120246"><ele>1.0</ele><time>2026-04-05T15:56:35Z</time></trkpt><trkpt lat="43.97166941836279" lon="10.151322181955253"><ele>1.0</ele><time>2026-04-05T15:56:42Z</time></trkpt><trkpt lat="43.97161200441321" lon="10.151398165781305"><ele>1.0</ele><time>2026-04-05T15:56:49Z</time></trkpt><trkpt lat="43.971558208793816" lon="10.151473128622976"><ele>0.9999999999999999</ele><time>2026-04-05T15:56:56Z</time></trkpt><trkpt lat="43.97149403594235" lon="10.15149591320107"><ele>1.0</ele><time>2026-04-05T15:57:02Z</time></trkpt><trkpt lat="43.971449669568344" lon="10.15156582794882"><ele>1.0</ele><time>2026-04-05T15:57:08Z</time></trkpt><trkpt lat="43.97140262316287" lon="10.151646012851018"><ele>0.9999999999999999</ele><time>2026-04-05T15:57:15Z</time></trkpt><trkpt lat="43.97135198391862" lon="10.151708528830742"><ele>1.0</ele><time>2026-04-05T15:57:21Z</time></trkpt><trkpt lat="43.97130198598353" lon="10.15176515386195"><ele>1.0</ele><time>2026-04-05T15:57:27Z</time></trkpt><trkpt lat="43.9712440340127" lon="10.15181587939235"><ele>1.1428571428571428</ele><time>2026-04-05T15:57:33Z</time></trkpt><trkpt lat="43.9711914494436" lon="10.151879642744"><ele>1.2857142857142856</ele><time>2026-04-05T15:57:40Z</time></trkpt><trkpt lat="43.9711405887735" lon="10.151954992028134"><ele>1.4285714285714284</ele><time>2026-04-05T15:57:45Z</time></trkpt><trkpt lat="43.97108193421145" lon="10.152022568402565"><ele>1.5714285714285714</ele><time>2026-04-05T15:57:52Z</time></trkpt><trkpt lat="43.971033381388935" lon="10.15209586399591"><ele>1.714285714285714</ele><time>2026-04-05T15:57:58Z</time></trkpt><trkpt lat="43.970975097310784" lon="10.152168763006355"><ele>1.857142857142857</ele><time>2026-04-05T15:58:05Z</time></trkpt><trkpt lat="43.97093207985382" lon="10.152239366598911"><ele>2.0</ele><time>2026-04-05T15:58:11Z</time></trkpt><trkpt lat="43.97086662039184" lon="10.152263267904905"><ele>2.0</ele><time>2026-04-05T15:58:17Z</time></trkpt><trkpt lat="43.97081674156545" lon="10.152326182453361"><ele>1.9999999999999998</ele><time>2026-04-05T15:58:22Z</time></trkpt><trkpt lat="43.97076389825793" lon="10.152376939558268"><ele>2.0</ele><time>2026-04-05T15:58:26.999Z</time></trkpt><trkpt lat="43.970715121150484" lon="10.152450449037888"><ele>2.0</ele><time>2026-04-05T15:58:34Z</time></trkpt><trkpt lat="43.97067091079006" lon="10.152515377204427"><ele>1.9999999999999998</ele><time>2026-04-05T15:58:40Z</time></trkpt><trkpt lat="43.97062313025578" lon="10.152579303338975"><ele>2.0</ele><time>2026-04-05T15:58:46Z</time></trkpt><trkpt lat="43.97057366964485" lon="10.152648007427555"><ele>2.0</ele><time>2026-04-05T15:58:52Z</time></trkpt><trkpt lat="43.970528332566694" lon="10.152711116747039"><ele>2.0</ele><time>2026-04-05T15:58:58Z</time></trkpt><trkpt lat="43.97047588998109" lon="10.152766114867608"><ele>1.9999999999999998</ele><time>2026-04-05T15:59:04Z</time></trkpt><trkpt lat="43.97041801806745" lon="10.152813876916454"><ele>2.0</ele><time>2026-04-05T15:59:09Z</time></trkpt><trkpt lat="43.97037126958158" lon="10.152877948718183"><ele>2.0</ele><time>2026-04-05T15:59:15Z</time></trkpt><trkpt lat="43.97033177984302" lon="10.152951407196339"><ele>1.9999999999999998</ele><time>2026-04-05T15:59:21Z</time></trkpt><trkpt lat="43.97027265628159" lon="10.152997757212773"><ele>2.0</ele><time>2026-04-05T15:59:27Z</time></trkpt><trkpt lat="43.97022895102833" lon="10.153064225865846"><ele>2.0</ele><time>2026-04-05T15:59:33Z</time></trkpt><trkpt lat="43.97016743314499" lon="10.153106512384058"><ele>2.0</ele><time>2026-04-05T15:59:39Z</time></trkpt><trkpt lat="43.97011248090067" lon="10.15316681289026"><ele>1.9999999999999998</ele><time>2026-04-05T15:59:45Z</time></trkpt><trkpt lat="43.970058435206134" lon="10.153234283150274"><ele>2.0</ele><time>2026-04-05T15:59:52Z</time></trkpt><trkpt lat="43.970011950740535" lon="10.15329487034703"><ele>2.0</ele><time>2026-04-05T15:59:57Z</time></trkpt><trkpt lat="43.96996251906173" lon="10.153350493328611"><ele>1.9999999999999998</ele><time>2026-04-05T16:00:02Z</time></trkpt><trkpt lat="43.96991398358934" lon="10.153409666227953"><ele>2.0</ele><time>2026-04-05T16:00:08Z</time></trkpt><trkpt lat="43.96986292173404" lon="10.153485380841055"><ele>2.0</ele><time>2026-04-05T16:00:15Z</time></trkpt><trkpt lat="43.969813336387276" lon="10.153552688769778"><ele>2.142857142857143</ele><time>2026-04-05T16:00:21Z</time></trkpt><trkpt lat="43.969770587145" lon="10.153617797280232"><ele>2.2857142857142856</ele><time>2026-04-05T16:00:26Z</time></trkpt><trkpt lat="43.969703969575626" lon="10.153664234672311"><ele>2.4285714285714284</ele><time>2026-04-05T16:00:31.999Z</time></trkpt><trkpt lat="43.9696561605145" lon="10.1537213340667"><ele>2.571428571428571</ele><time>2026-04-05T16:00:38Z</time></trkpt><trkpt lat="43.969609976764225" lon="10.153786138244701"><ele>2.7142857142857144</ele><time>2026-04-05T16:00:49Z</time></trkpt><trkpt lat="43.96954659903943" lon="10.153834281974472"><ele>2.8571428571428568</ele><time>2026-04-05T16:00:54Z</time></trkpt><trkpt lat="43.96950326412662" lon="10.153901480859298"><ele>3.0</ele><time>2026-04-05T16:00:58Z</time></trkpt><trkpt lat="43.96945346000498" lon="10.15396857971369"><ele>3.2857142857142856</ele><time>2026-04-05T16:01:04Z</time></trkpt><trkpt lat="43.96939730348537" lon="10.15403930383883"><ele>3.571428571428571</ele><time>2026-04-05T16:01:11Z</time></trkpt><trkpt lat="43.96933907823277" lon="10.154094418566796"><ele>3.8571428571428568</ele><time>2026-04-05T16:01:16Z</time></trkpt><trkpt lat="43.969286506123204" lon="10.154167186513732"><ele>4.142857142857142</ele><time>2026-04-05T16:01:23Z</time></trkpt><trkpt lat="43.969240269791506" lon="10.154229315383569"><ele>4.428571428571429</ele><time>2026-04-05T16:01:29Z</time></trkpt><trkpt lat="43.96919397815099" lon="10.154294950219558"><ele>4.714285714285714</ele><time>2026-04-05T16:01:34Z</time></trkpt><trkpt lat="43.969131468021665" lon="10.15435486485184"><ele>5.0</ele><time>2026-04-05T16:01:40Z</time></trkpt><trkpt lat="43.96907306751807" lon="10.154410718857859"><ele>5.0</ele><time>2026-04-05T16:01:46Z</time></trkpt><trkpt lat="43.96902458145175" lon="10.154470304268768"><ele>5.0</ele><time>2026-04-05T16:01:53Z</time></trkpt><trkpt lat="43.968974054850314" lon="10.15454003047017"><ele>5.0</ele><time>2026-04-05T16:01:58Z</time></trkpt><trkpt lat="43.96891590948535" lon="10.154595935760396"><ele>5.0</ele><time>2026-04-05T16:02:04Z</time></trkpt><trkpt lat="43.968863577469385" lon="10.15465952061011"><ele>5.0</ele><time>2026-04-05T16:02:10Z</time></trkpt><trkpt lat="43.96881374972306" lon="10.154722511107954"><ele>5.0</ele><time>2026-04-05T16:02:16Z</time></trkpt><trkpt lat="43.96875815756674" lon="10.154792512793666"><ele>5.0</ele><time>2026-04-05T16:02:23Z</time></trkpt><trkpt lat="43.9687146129111" lon="10.154859073461157"><ele>5.285714285714286</ele><time>2026-04-05T16:02:28Z</time></trkpt><trkpt lat="43.96865812807912" lon="10.154920349678568"><ele>5.571428571428571</ele><time>2026-04-05T16:02:34Z</time></trkpt><trkpt lat="43.96860397150561" lon="10.154996795301036"><ele>5.857142857142858</ele><time>2026-04-05T16:02:41Z</time></trkpt><trkpt lat="43.96855833036792" lon="10.155070522725403"><ele>6.142857142857142</ele><time>2026-04-05T16:02:48Z</time></trkpt><trkpt lat="43.968512563062475" lon="10.155134169657067"><ele>6.428571428571429</ele><time>2026-04-05T16:02:54Z</time></trkpt><trkpt lat="43.96845501193468" lon="10.155170630272949"><ele>6.714285714285714</ele><time>2026-04-05T16:03:05Z</time></trkpt><trkpt lat="43.96840852146572" lon="10.155236748601446"><ele>7.0</ele><time>2026-04-05T16:03:10Z</time></trkpt><trkpt lat="43.96835629367391" lon="10.155287339703708"><ele>6.428571428571429</ele><time>2026-04-05T16:03:15Z</time></trkpt><trkpt lat="43.96830934224206" lon="10.155353588842413"><ele>5.857142857142857</ele><time>2026-04-05T16:03:21Z</time></trkpt><trkpt lat="43.96827011481894" lon="10.155432067363282"><ele>5.285714285714286</ele><time>2026-04-05T16:03:27Z</time></trkpt><trkpt lat="43.9682075973945" lon="10.155484213030016"><ele>4.714285714285714</ele><time>2026-04-05T16:03:33Z</time></trkpt><trkpt lat="43.968157310432204" lon="10.155540444599653"><ele>4.142857142857142</ele><time>2026-04-05T16:03:39Z</time></trkpt><trkpt lat="43.968098784021045" lon="10.15560457156729"><ele>3.571428571428571</ele><time>2026-04-05T16:03:46Z</time></trkpt><trkpt lat="43.968049405536014" lon="10.155661403869923"><ele>3.0</ele><time>2026-04-05T16:03:51Z</time></trkpt><trkpt lat="43.96798681509945" lon="10.155701990655624"><ele>3.1428571428571423</ele><time>2026-04-05T16:03:57Z</time></trkpt><trkpt lat="43.96793906950308" lon="10.155774021274876"><ele>3.2857142857142856</ele><time>2026-04-05T16:04:03Z</time></trkpt><trkpt lat="43.96788844879946" lon="10.155835582474749"><ele>3.4285714285714284</ele><time>2026-04-05T16:04:09Z</time></trkpt><trkpt lat="43.967841405038584" lon="10.155907861689958"><ele>3.571428571428571</ele><time>2026-04-05T16:04:15Z</time></trkpt><trkpt lat="43.96779681656047" lon="10.15598008714819"><ele>3.714285714285714</ele><time>2026-04-05T16:04:21Z</time></trkpt><trkpt lat="43.9677432856605" lon="10.156038494564333"><ele>3.8571428571428568</ele><time>2026-04-05T16:04:27Z</time></trkpt><trkpt lat="43.96769449481888" lon="10.156098146547034"><ele>4.0</ele><time>2026-04-05T16:04:32Z</time></trkpt><trkpt lat="43.96764327901785" lon="10.156155520821232"><ele>4.0</ele><time>2026-04-05T16:04:38Z</time></trkpt><trkpt lat="43.96758617188351" lon="10.156213127597644"><ele>3.9999999999999996</ele><time>2026-04-05T16:04:43.999Z</time></trkpt><trkpt lat="43.967531208347744" lon="10.156271478936578"><ele>4.0</ele><time>2026-04-05T16:04:50Z</time></trkpt><trkpt lat="43.967482154074816" lon="10.15633655288468"><ele>4.0</ele><time>2026-04-05T16:04:56Z</time></trkpt><trkpt lat="43.967426306639204" lon="10.156406464408727"><ele>3.9999999999999996</ele><time>2026-04-05T16:05:02Z</time></trkpt><trkpt lat="43.96737954560972" lon="10.156480261966314"><ele>4.0</ele><time>2026-04-05T16:05:08Z</time></trkpt><trkpt lat="43.96732029426502" lon="10.156553755693695"><ele>4.0</ele><time>2026-04-05T16:05:15Z</time></trkpt><trkpt lat="43.96727236058925" lon="10.156615281678716"><ele>3.8571428571428568</ele><time>2026-04-05T16:05:21Z</time></trkpt><trkpt lat="43.96722837629813" lon="10.156683903343685"><ele>3.714285714285714</ele><time>2026-04-05T16:05:26Z</time></trkpt><trkpt lat="43.96717340514707" lon="10.156732555009631"><ele>3.571428571428571</ele><time>2026-04-05T16:05:32Z</time></trkpt><trkpt lat="43.967115613991666" lon="10.156788989006095"><ele>3.4285714285714284</ele><time>2026-04-05T16:05:38Z</time></trkpt><trkpt lat="43.967065216004286" lon="10.156864329332528"><ele>3.2857142857142856</ele><time>2026-04-05T16:05:44Z</time></trkpt><trkpt lat="43.96701432900205" lon="10.15693715395487"><ele>3.1428571428571423</ele><time>2026-04-05T16:05:51Z</time></trkpt><trkpt lat="43.96695480418741" lon="10.156983151739087"><ele>3.0</ele><time>2026-04-05T16:05:57Z</time></trkpt><trkpt lat="43.96691557003519" lon="10.15705364621311"><ele>2.9999999999999996</ele><time>2026-04-05T16:06:04Z</time></trkpt><trkpt lat="43.96686180208568" lon="10.157114148562034"><ele>3.0</ele><time>2026-04-05T16:06:09Z</time></trkpt><trkpt lat="43.96681865594091" lon="10.157179319004051"><ele>3.0</ele><time>2026-04-05T16:06:14Z</time></trkpt><trkpt lat="43.966774276379" lon="10.157256954400742"><ele>3.0</ele><time>2026-04-05T16:06:20Z</time></trkpt><trkpt lat="43.966717494670384" lon="10.15730342208926"><ele>3.0</ele><time>2026-04-05T16:06:26Z</time></trkpt><trkpt lat="43.966660107071704" lon="10.157354428332322"><ele>2.9999999999999996</ele><time>2026-04-05T16:06:33Z</time></trkpt><trkpt lat="43.96660565298325" lon="10.15742098083429"><ele>3.0</ele><time>2026-04-05T16:06:39Z</time></trkpt><trkpt lat="43.966543421171075" lon="10.157485057669033"><ele>3.2857142857142856</ele><time>2026-04-05T16:06:45Z</time></trkpt><trkpt lat="43.966490569044446" lon="10.15754036521963"><ele>3.571428571428571</ele><time>2026-04-05T16:06:51Z</time></trkpt><trkpt lat="43.96642751253536" lon="10.157598512615438"><ele>3.8571428571428568</ele><time>2026-04-05T16:06:57Z</time></trkpt><trkpt lat="43.966376978680834" lon="10.157670839860518"><ele>4.142857142857142</ele><time>2026-04-05T16:07:03Z</time></trkpt><trkpt lat="43.96633384523678" lon="10.157735151854343"><ele>4.428571428571429</ele><time>2026-04-05T16:07:09Z</time></trkpt><trkpt lat="43.966281554831504" lon="10.157792896046951"><ele>4.714285714285714</ele><time>2026-04-05T16:07:15Z</time></trkpt><trkpt lat="43.96623370302343" lon="10.157856905267575"><ele>5.0</ele><time>2026-04-05T16:07:21Z</time></trkpt><trkpt lat="43.96618645217934" lon="10.157924241470234"><ele>5.0</ele><time>2026-04-05T16:07:26Z</time></trkpt><trkpt lat="43.96612254329167" lon="10.157986346984664"><ele>5.0</ele><time>2026-04-05T16:07:33Z</time></trkpt><trkpt lat="43.96605513852861" lon="10.158060784919737"><ele>5.0</ele><time>2026-04-05T16:07:40Z</time></trkpt><trkpt lat="43.966009235403355" lon="10.158125553017808"><ele>5.0</ele><time>2026-04-05T16:07:47Z</time></trkpt><trkpt lat="43.96596068628511" lon="10.158182716504996"><ele>5.0</ele><time>2026-04-05T16:07:52Z</time></trkpt><trkpt lat="43.96590674047157" lon="10.158229767409537"><ele>5.0</ele><time>2026-04-05T16:07:58Z</time></trkpt><trkpt lat="43.965852746279104" lon="10.158276252092374"><ele>5.0</ele><time>2026-04-05T16:08:03Z</time></trkpt><trkpt lat="43.9658085002342" lon="10.15835346310921"><ele>4.714285714285714</ele><time>2026-04-05T16:08:09Z</time></trkpt><trkpt lat="43.9657538716875" lon="10.158423472686033"><ele>4.428571428571429</ele><time>2026-04-05T16:08:15Z</time></trkpt><trkpt lat="43.96570622509687" lon="10.158506880491176"><ele>4.142857142857142</ele><time>2026-04-05T16:08:21Z</time></trkpt><trkpt lat="43.96565325948221" lon="10.158568451577581"><ele>3.8571428571428568</ele><time>2026-04-05T16:08:28Z</time></trkpt><trkpt lat="43.965607452344535" lon="10.158632433419253"><ele>3.571428571428571</ele><time>2026-04-05T16:08:34Z</time></trkpt><trkpt lat="43.96554686075614" lon="10.158695055260278"><ele>3.2857142857142856</ele><time>2026-04-05T16:08:41Z</time></trkpt><trkpt lat="43.96549677746914" lon="10.158757650086546"><ele>3.0</ele><time>2026-04-05T16:08:46Z</time></trkpt><trkpt lat="43.96544545042396" lon="10.158813659449978"><ele>2.9999999999999996</ele><time>2026-04-05T16:08:52Z</time></trkpt><trkpt lat="43.96538580984775" lon="10.158874834855252"><ele>3.0</ele><time>2026-04-05T16:08:58Z</time></trkpt><trkpt lat="43.965335394632994" lon="10.158950969669679"><ele>3.0</ele><time>2026-04-05T16:09:04Z</time></trkpt><trkpt lat="43.96527661932777" lon="10.158994158642246"><ele>3.0</ele><time>2026-04-05T16:09:10Z</time></trkpt><trkpt lat="43.965225083107434" lon="10.159069705668914"><ele>3.0</ele><time>2026-04-05T16:09:17Z</time></trkpt><trkpt lat="43.9651772323905" lon="10.159131266301214"><ele>2.9999999999999996</ele><time>2026-04-05T16:09:23Z</time></trkpt><trkpt lat="43.96511899874882" lon="10.15918430487312"><ele>3.0</ele><time>2026-04-05T16:09:29Z</time></trkpt><trkpt lat="43.96506467710905" lon="10.159249826673156"><ele>2.8571428571428568</ele><time>2026-04-05T16:09:35Z</time></trkpt><trkpt lat="43.965011375092686" lon="10.159305004995709"><ele>2.7142857142857144</ele><time>2026-04-05T16:09:41Z</time></trkpt><trkpt lat="43.96495595585685" lon="10.15935822671877"><ele>2.571428571428571</ele><time>2026-04-05T16:09:47Z</time></trkpt><trkpt lat="43.96490444953302" lon="10.159423850240525"><ele>2.4285714285714284</ele><time>2026-04-05T16:09:53Z</time></trkpt><trkpt lat="43.96485632598441" lon="10.159499441481772"><ele>2.2857142857142856</ele><time>2026-04-05T16:09:59Z</time></trkpt><trkpt lat="43.96480510857699" lon="10.159558795242605"><ele>2.142857142857143</ele><time>2026-04-05T16:10:06Z</time></trkpt><trkpt lat="43.96474750690267" lon="10.159612713583458"><ele>2.0</ele><time>2026-04-05T16:10:12Z</time></trkpt><trkpt lat="43.96469826110173" lon="10.159672269126444"><ele>2.0</ele><time>2026-04-05T16:10:18Z</time></trkpt><trkpt lat="43.964644207753096" lon="10.159731946709469"><ele>1.9999999999999998</ele><time>2026-04-05T16:10:24Z</time></trkpt><trkpt lat="43.964592893266676" lon="10.159801546988243"><ele>2.0</ele><time>2026-04-05T16:10:30Z</time></trkpt><trkpt lat="43.96454753048469" lon="10.159867950157745"><ele>2.0</ele><time>2026-04-05T16:10:35Z</time></trkpt><trkpt lat="43.96449843308986" lon="10.159929769932571"><ele>1.9999999999999998</ele><time>2026-04-05T16:10:41Z</time></trkpt><trkpt lat="43.96444772286997" lon="10.159985326126824"><ele>2.0</ele><time>2026-04-05T16:10:46Z</time></trkpt><trkpt lat="43.96440429785741" lon="10.160053417420864"><ele>2.0</ele><time>2026-04-05T16:10:51Z</time></trkpt><trkpt lat="43.964352782939" lon="10.160105477258192"><ele>2.0</ele><time>2026-04-05T16:10:58Z</time></trkpt><trkpt lat="43.96429578839149" lon="10.16015415076608"><ele>1.9999999999999998</ele><time>2026-04-05T16:11:04Z</time></trkpt><trkpt lat="43.96424659443532" lon="10.160223533448544"><ele>2.0</ele><time>2026-04-05T16:11:10Z</time></trkpt><trkpt lat="43.96419460679482" lon="10.160284764560446"><ele>2.0</ele><time>2026-04-05T16:11:16Z</time></trkpt><trkpt lat="43.9641428416054" lon="10.160338824059464"><ele>1.9999999999999998</ele><time>2026-04-05T16:11:21Z</time></trkpt><trkpt lat="43.96409717326949" lon="10.160404453282194"><ele>2.0</ele><time>2026-04-05T16:11:26Z</time></trkpt><trkpt lat="43.964057061558925" lon="10.160474234526484"><ele>2.0</ele><time>2026-04-05T16:11:32Z</time></trkpt><trkpt lat="43.96400945010095" lon="10.160539100728943"><ele>1.9999999999999998</ele><time>2026-04-05T16:11:39Z</time></trkpt><trkpt lat="43.96397753827321" lon="10.16061602943867"><ele>2.0</ele><time>2026-04-05T16:11:45Z</time></trkpt><trkpt lat="43.96392634134845" lon="10.160675034711"><ele>2.0</ele><time>2026-04-05T16:11:51Z</time></trkpt><trkpt lat="43.963869539150274" lon="10.160730760877483"><ele>2.0</ele><time>2026-04-05T16:11:57Z</time></trkpt><trkpt lat="43.963815263105346" lon="10.160783392028499"><ele>1.9999999999999998</ele><time>2026-04-05T16:12:03Z</time></trkpt><trkpt lat="43.96376755239814" lon="10.160846243778145"><ele>2.0</ele><time>2026-04-05T16:12:09Z</time></trkpt><trkpt lat="43.96358685102453" lon="10.1610269695469"><ele>2.0</ele><time>2026-04-05T16:12:28Z</time></trkpt><trkpt lat="43.96354537160061" lon="10.16109311660617"><ele>1.9999999999999998</ele><time>2026-04-05T16:12:34Z</time></trkpt><trkpt lat="43.96348975422939" lon="10.161139054050969"><ele>2.0</ele><time>2026-04-05T16:12:40Z</time></trkpt><trkpt lat="43.96344100642376" lon="10.161198215041347"><ele>2.0</ele><time>2026-04-05T16:12:46Z</time></trkpt><trkpt lat="43.96339261582483" lon="10.16125898432511"><ele>1.9999999999999998</ele><time>2026-04-05T16:12:52Z</time></trkpt><trkpt lat="43.96333797077328" lon="10.161320815406327"><ele>2.0</ele><time>2026-04-05T16:12:58Z</time></trkpt><trkpt lat="43.96329306869394" lon="10.16138289212125"><ele>2.0</ele><time>2026-04-05T16:13:03Z</time></trkpt><trkpt lat="43.96323597411953" lon="10.161435248160853"><ele>1.857142857142857</ele><time>2026-04-05T16:13:10Z</time></trkpt><trkpt lat="43.96318359809938" lon="10.161507804870759"><ele>1.714285714285714</ele><time>2026-04-05T16:13:17Z</time></trkpt><trkpt lat="43.96312666195232" lon="10.161568249136042"><ele>1.5714285714285714</ele><time>2026-04-05T16:13:23Z</time></trkpt><trkpt lat="43.96306580001036" lon="10.161629164177427"><ele>1.4285714285714284</ele><time>2026-04-05T16:13:30Z</time></trkpt><trkpt lat="43.96302780982479" lon="10.161712044815582"><ele>1.2857142857142856</ele><time>2026-04-05T16:13:36Z</time></trkpt><trkpt lat="43.962972330344456" lon="10.161760953999382"><ele>1.1428571428571428</ele><time>2026-04-05T16:13:42Z</time></trkpt><trkpt lat="43.962927807382044" lon="10.161823708922338"><ele>1.0</ele><time>2026-04-05T16:13:48Z</time></trkpt><trkpt lat="43.9628739059391" lon="10.161892553344023"><ele>1.1428571428571428</ele><time>2026-04-05T16:13:54Z</time></trkpt><trkpt lat="43.96283973827889" lon="10.161974424192657"><ele>1.2857142857142856</ele><time>2026-04-05T16:18:05Z</time></trkpt><trkpt lat="43.96278075894978" lon="10.16201715850621"><ele>1.4285714285714284</ele><time>2026-04-05T16:18:09Z</time></trkpt><trkpt lat="43.96273460760442" lon="10.16207896085157"><ele>1.5714285714285714</ele><time>2026-04-05T16:18:15Z</time></trkpt><trkpt lat="43.962678716274866" lon="10.162153716462413"><ele>1.714285714285714</ele><time>2026-04-05T16:18:21Z</time></trkpt><trkpt lat="43.96262550093681" lon="10.162221226414008"><ele>1.857142857142857</ele><time>2026-04-05T16:18:27Z</time></trkpt><trkpt lat="43.96257024956043" lon="10.162270144256393"><ele>2.0</ele><time>2026-04-05T16:18:32Z</time></trkpt><trkpt lat="43.962514091405815" lon="10.162313247254518"><ele>2.142857142857143</ele><time>2026-04-05T16:18:38Z</time></trkpt><trkpt lat="43.962469311411" lon="10.162387266125899"><ele>2.2857142857142856</ele><time>2026-04-05T16:18:45Z</time></trkpt><trkpt lat="43.96242596223588" lon="10.162454914035935"><ele>2.4285714285714284</ele><time>2026-04-05T16:18:52Z</time></trkpt><trkpt lat="43.962369282381296" lon="10.16251889805956"><ele>2.571428571428571</ele><time>2026-04-05T16:18:59Z</time></trkpt><trkpt lat="43.962323664513605" lon="10.162580789180215"><ele>2.7142857142857144</ele><time>2026-04-05T16:19:05Z</time></trkpt><trkpt lat="43.96226710134543" lon="10.162640298979671"><ele>2.8571428571428568</ele><time>2026-04-05T16:19:11Z</time></trkpt><trkpt lat="43.96221323924163" lon="10.16270712986517"><ele>3.0</ele><time>2026-04-05T16:19:17Z</time></trkpt><trkpt lat="43.96216651898603" lon="10.162766829584287"><ele>2.9999999999999996</ele><time>2026-04-05T16:19:23Z</time></trkpt><trkpt lat="43.96211247896222" lon="10.16282758040147"><ele>3.0</ele><time>2026-04-05T16:19:30Z</time></trkpt><trkpt lat="43.962055796793464" lon="10.162878832814474"><ele>3.0</ele><time>2026-04-05T16:19:35Z</time></trkpt><trkpt lat="43.96200921783283" lon="10.162942175704156"><ele>3.0</ele><time>2026-04-05T16:19:42Z</time></trkpt><trkpt lat="43.961955891708904" lon="10.162997720732672"><ele>3.0</ele><time>2026-04-05T16:19:48Z</time></trkpt><trkpt lat="43.961916431458064" lon="10.163079365374772"><ele>2.9999999999999996</ele><time>2026-04-05T16:19:54Z</time></trkpt><trkpt lat="43.96186264982753" lon="10.163131238039549"><ele>3.0</ele><time>2026-04-05T16:20:00Z</time></trkpt><trkpt lat="43.961803957572585" lon="10.163192889973956"><ele>3.1428571428571423</ele><time>2026-04-05T16:20:06Z</time></trkpt><trkpt lat="43.961752933275235" lon="10.1632578894909"><ele>3.2857142857142856</ele><time>2026-04-05T16:20:11Z</time></trkpt><trkpt lat="43.9616897762292" lon="10.163320109840242"><ele>3.4285714285714284</ele><time>2026-04-05T16:20:17Z</time></trkpt><trkpt lat="43.96163440577245" lon="10.163387788539692"><ele>3.571428571428571</ele><time>2026-04-05T16:20:24Z</time></trkpt><trkpt lat="43.96158551052916" lon="10.163471977378636"><ele>3.714285714285714</ele><time>2026-04-05T16:20:31Z</time></trkpt><trkpt lat="43.96152139154036" lon="10.163535487311814"><ele>3.8571428571428568</ele><time>2026-04-05T16:20:38Z</time></trkpt><trkpt lat="43.961475476772414" lon="10.163599973549173"><ele>4.0</ele><time>2026-04-05T16:20:44Z</time></trkpt><trkpt lat="43.961415280613195" lon="10.16365852020649"><ele>3.714285714285714</ele><time>2026-04-05T16:20:52Z</time></trkpt><trkpt lat="43.96136474551621" lon="10.163736782916645"><ele>3.428571428571428</ele><time>2026-04-05T16:21:01Z</time></trkpt><trkpt lat="43.96130997003466" lon="10.163783790375591"><ele>3.142857142857143</ele><time>2026-04-05T16:21:06Z</time></trkpt><trkpt lat="43.961259353811975" lon="10.163854014322105"><ele>2.8571428571428568</ele><time>2026-04-05T16:21:13Z</time></trkpt><trkpt lat="43.96121470255579" lon="10.163916431796688"><ele>2.571428571428571</ele><time>2026-04-05T16:21:18Z</time></trkpt><trkpt lat="43.96115265340596" lon="10.163984502558893"><ele>2.2857142857142856</ele><time>2026-04-05T16:21:25Z</time></trkpt><trkpt lat="43.96110307309141" lon="10.16404081365091"><ele>2.0</ele><time>2026-04-05T16:21:30Z</time></trkpt><trkpt lat="43.961050746034054" lon="10.164099315526423"><ele>2.0</ele><time>2026-04-05T16:21:36Z</time></trkpt><trkpt lat="43.96099834566379" lon="10.164161606629246"><ele>1.9999999999999998</ele><time>2026-04-05T16:21:42Z</time></trkpt><trkpt lat="43.960941998577376" lon="10.16422277164092"><ele>2.0</ele><time>2026-04-05T16:21:48Z</time></trkpt><trkpt lat="43.960892615575474" lon="10.164278282479774"><ele>2.0</ele><time>2026-04-05T16:21:54Z</time></trkpt><trkpt lat="43.96083598464181" lon="10.164338030548338"><ele>1.9999999999999998</ele><time>2026-04-05T16:22:02Z</time></trkpt><trkpt lat="43.96078911589502" lon="10.164402552089934"><ele>2.0</ele><time>2026-04-05T16:22:08Z</time></trkpt><trkpt lat="43.9607322561271" lon="10.16446845470716"><ele>2.0</ele><time>2026-04-05T16:22:15Z</time></trkpt><trkpt lat="43.96068684585761" lon="10.164531159961257"><ele>2.0</ele><time>2026-04-05T16:22:22Z</time></trkpt><trkpt lat="43.960633448195395" lon="10.164590998693159"><ele>1.9999999999999998</ele><time>2026-04-05T16:22:28Z</time></trkpt><trkpt lat="43.96056960487616" lon="10.164649024319122"><ele>2.0</ele><time>2026-04-05T16:22:36Z</time></trkpt><trkpt lat="43.96051436322326" lon="10.164711186642155"><ele>2.0</ele><time>2026-04-05T16:22:43Z</time></trkpt><trkpt lat="43.96046881363763" lon="10.164787603057833"><ele>1.9999999999999998</ele><time>2026-04-05T16:22:48Z</time></trkpt><trkpt lat="43.96041528892372" lon="10.164849908038883"><ele>2.0</ele><time>2026-04-05T16:22:56Z</time></trkpt><trkpt lat="43.96035942723812" lon="10.164916954326692"><ele>2.0</ele><time>2026-04-05T16:23:04Z</time></trkpt><trkpt lat="43.96030097596412" lon="10.164978053517295"><ele>2.0</ele><time>2026-04-05T16:23:12Z</time></trkpt><trkpt lat="43.96025025321841" lon="10.165041407954558"><ele>1.9999999999999998</ele><time>2026-04-05T16:23:19Z</time></trkpt><trkpt lat="43.96020717459193" lon="10.165106439172815"><ele>2.0</ele><time>2026-04-05T16:23:25Z</time></trkpt><trkpt lat="43.96015141279241" lon="10.165167222338175"><ele>2.0</ele><time>2026-04-05T16:23:32Z</time></trkpt><trkpt lat="43.96009349297092" lon="10.165222813338156"><ele>1.9999999999999998</ele><time>2026-04-05T16:23:38Z</time></trkpt><trkpt lat="43.96003573954147" lon="10.165287264695854"><ele>2.0</ele><time>2026-04-05T16:23:44Z</time></trkpt><trkpt lat="43.959972250119286" lon="10.16535449030442"><ele>2.0</ele><time>2026-04-05T16:23:50Z</time></trkpt><trkpt lat="43.95991802721724" lon="10.165417749306943"><ele>2.0</ele><time>2026-04-05T16:23:57Z</time></trkpt><trkpt lat="43.9598724320252" lon="10.165478190393385"><ele>1.9999999999999998</ele><time>2026-04-05T16:24:03Z</time></trkpt><trkpt lat="43.95981949538355" lon="10.165536939110924"><ele>2.0</ele><time>2026-04-05T16:24:09Z</time></trkpt><trkpt lat="43.959773850770915" lon="10.165598692387062"><ele>2.0</ele><time>2026-04-05T16:24:16Z</time></trkpt><trkpt lat="43.95971984296956" lon="10.165652753439346"><ele>1.9999999999999998</ele><time>2026-04-05T16:24:22Z</time></trkpt><trkpt lat="43.95966645422065" lon="10.165701625094554"><ele>2.0</ele><time>2026-04-05T16:24:28Z</time></trkpt><trkpt lat="43.95961987207488" lon="10.165761655920281"><ele>2.0</ele><time>2026-04-05T16:24:34Z</time></trkpt><trkpt lat="43.9595605207364" lon="10.165822780248643"><ele>2.4285714285714284</ele><time>2026-04-05T16:24:41Z</time></trkpt><trkpt lat="43.95951377701054" lon="10.165891470396293"><ele>2.8571428571428568</ele><time>2026-04-05T16:24:47Z</time></trkpt><trkpt lat="43.95946038844702" lon="10.165954437183627"><ele>3.2857142857142856</ele><time>2026-04-05T16:24:53Z</time></trkpt><trkpt lat="43.959411200124464" lon="10.16601888711441"><ele>3.7142857142857144</ele><time>2026-04-05T16:24:59Z</time></trkpt><trkpt lat="43.95936635688634" lon="10.166091418308032"><ele>4.142857142857143</ele><time>2026-04-05T16:25:05Z</time></trkpt><trkpt lat="43.959311404379235" lon="10.16613677872197"><ele>4.571428571428571</ele><time>2026-04-05T16:25:11Z</time></trkpt><trkpt lat="43.95928374708664" lon="10.16621942147578"><ele>5.0</ele><time>2026-04-05T16:25:17Z</time></trkpt><trkpt lat="43.95932905382744" lon="10.166288889345855"><ele>5.0</ele><time>2026-04-05T16:25:24Z</time></trkpt><trkpt lat="43.959375298962335" lon="10.166360945554532"><ele>5.0</ele><time>2026-04-05T16:25:30Z</time></trkpt><trkpt lat="43.959406705504065" lon="10.166442490729194"><ele>5.0</ele><time>2026-04-05T16:25:36Z</time></trkpt><trkpt lat="43.95945292002654" lon="10.166524213558283"><ele>5.0</ele><time>2026-04-05T16:25:41.999Z</time></trkpt><trkpt lat="43.959493011347384" lon="10.166598135615956"><ele>5.0</ele><time>2026-04-05T16:25:49Z</time></trkpt><trkpt lat="43.959534570098725" lon="10.166675811552134"><ele>5.0</ele><time>2026-04-05T16:25:56Z</time></trkpt><trkpt lat="43.95957516027536" lon="10.166755832874419"><ele>5.0</ele><time>2026-04-05T16:26:02Z</time></trkpt><trkpt lat="43.9596191634345" lon="10.16683372568277"><ele>4.857142857142857</ele><time>2026-04-05T16:26:07Z</time></trkpt><trkpt lat="43.95965767942076" lon="10.166919598116758"><ele>4.714285714285714</ele><time>2026-04-05T16:26:14Z</time></trkpt><trkpt lat="43.959705226670586" lon="10.166994268799586"><ele>4.571428571428571</ele><time>2026-04-05T16:26:19Z</time></trkpt><trkpt lat="43.95973881540814" lon="10.167069664249079"><ele>4.428571428571429</ele><time>2026-04-05T16:26:26Z</time></trkpt><trkpt lat="43.959759240878576" lon="10.167169197201943"><ele>4.285714285714286</ele><time>2026-04-05T16:26:33Z</time></trkpt><trkpt lat="43.95978724560352" lon="10.167257805712497"><ele>4.142857142857142</ele><time>2026-04-05T16:26:39Z</time></trkpt><trkpt lat="43.95982380856159" lon="10.167341483097179"><ele>4.0</ele><time>2026-04-05T16:26:45Z</time></trkpt><trkpt lat="43.95985356981507" lon="10.167419912685753"><ele>3.8571428571428568</ele><time>2026-04-05T16:26:52Z</time></trkpt><trkpt lat="43.95989391829144" lon="10.167507152854618"><ele>3.714285714285714</ele><time>2026-04-05T16:26:58Z</time></trkpt><trkpt lat="43.959944701924556" lon="10.16758804712215"><ele>3.571428571428571</ele><time>2026-04-05T16:27:04Z</time></trkpt><trkpt lat="43.95999223171569" lon="10.167660656680535"><ele>3.4285714285714284</ele><time>2026-04-05T16:27:10Z</time></trkpt><trkpt lat="43.960033829062525" lon="10.167733442505"><ele>3.2857142857142856</ele><time>2026-04-05T16:27:15Z</time></trkpt><trkpt lat="43.960066897726804" lon="10.167812216357557"><ele>3.1428571428571423</ele><time>2026-04-05T16:27:21Z</time></trkpt><trkpt lat="43.96011596715286" lon="10.167879584496582"><ele>3.0</ele><time>2026-04-05T16:27:28Z</time></trkpt><trkpt lat="43.96016050815006" lon="10.167955141404672"><ele>2.9999999999999996</ele><time>2026-04-05T16:27:32Z</time></trkpt><trkpt lat="43.96020766649898" lon="10.168019480367224"><ele>3.0</ele><time>2026-04-05T16:27:39Z</time></trkpt><trkpt lat="43.96026697501572" lon="10.168087947488461"><ele>3.0</ele><time>2026-04-05T16:27:45Z</time></trkpt><trkpt lat="43.960300659778305" lon="10.168162385793648"><ele>3.0</ele><time>2026-04-05T16:27:50Z</time></trkpt><trkpt lat="43.96032668598939" lon="10.168246594067645"><ele>3.0</ele><time>2026-04-05T16:27:55Z</time></trkpt><trkpt lat="43.96037572056041" lon="10.168315276629677"><ele>2.9999999999999996</ele><time>2026-04-05T16:28:01Z</time></trkpt><trkpt lat="43.96042389081348" lon="10.16837519627444"><ele>3.0</ele><time>2026-04-05T16:28:07Z</time></trkpt><trkpt lat="43.960468755789634" lon="10.168445448333646"><ele>3.0</ele><time>2026-04-05T16:28:13Z</time></trkpt><trkpt lat="43.96052606292204" lon="10.168494019848097"><ele>3.0</ele><time>2026-04-05T16:28:18Z</time></trkpt><trkpt lat="43.96055087386597" lon="10.168586476888038"><ele>3.0</ele><time>2026-04-05T16:28:26Z</time></trkpt><trkpt lat="43.96048568567276" lon="10.168568136249949"><ele>3.0</ele><time>2026-04-05T16:28:52Z</time></trkpt><trkpt lat="43.96041981078642" lon="10.16857651745735"><ele>3.0</ele><time>2026-04-05T16:29:01Z</time></trkpt><trkpt lat="43.960522943947886" lon="10.168521221421909"><ele>3.0</ele><time>2026-04-05T16:29:46Z</time></trkpt><trkpt lat="43.96034408954614" lon="10.168674054616849"><ele>3.0</ele><time>2026-04-05T16:31:29Z</time></trkpt><trkpt lat="43.960279292180886" lon="10.16875606992406"><ele>3.0</ele><time>2026-04-05T16:31:32Z</time></trkpt><trkpt lat="43.960213033910996" lon="10.16882635520071"><ele>3.0</ele><time>2026-04-05T16:31:35Z</time></trkpt><trkpt lat="43.96052218503157" lon="10.168531405722453"><ele>3.0</ele><time>2026-04-05T16:31:44Z</time></trkpt><trkpt lat="43.9604410673712" lon="10.168581512528782"><ele>3.0</ele><time>2026-04-05T16:31:48Z</time></trkpt><trkpt lat="43.9603518975221" lon="10.16861151905064"><ele>3.0</ele><time>2026-04-05T16:31:51Z</time></trkpt><trkpt lat="43.960512239163855" lon="10.168544139474427"><ele>3.0</ele><time>2026-04-05T16:31:52Z</time></trkpt><trkpt lat="43.96056962396113" lon="10.168480119925677"><ele>3.0</ele><time>2026-04-05T16:31:58Z</time></trkpt><trkpt lat="43.96049777729447" lon="10.168562742211199"><ele>3.0</ele><time>2026-04-05T16:32:02Z</time></trkpt><trkpt lat="43.960385458775555" lon="10.168628281981755"><ele>3.0</ele><time>2026-04-05T16:32:04Z</time></trkpt><trkpt lat="43.96047314194474" lon="10.16860218608555"><ele>3.0</ele><time>2026-04-05T16:32:21Z</time></trkpt><trkpt lat="43.9605881622223" lon="10.168585296202338"><ele>3.0</ele><time>2026-04-05T16:33:45Z</time></trkpt><trkpt lat="43.960774144115106" lon="10.16807139032097"><ele>3.0</ele><time>2026-04-05T16:33:47Z</time></trkpt><trkpt lat="43.96079907016243" lon="10.167990809815205"><ele>3.0</ele><time>2026-04-05T16:33:50.02Z</time></trkpt><trkpt lat="43.960496927429574" lon="10.16858504924098"><ele>3.0</ele><time>2026-04-05T16:33:58Z</time></trkpt><trkpt lat="43.96038364413501" lon="10.168657095844216"><ele>3.0</ele><time>2026-04-05T16:33:59Z</time></trkpt><trkpt lat="43.96052620741461" lon="10.168567243200522"><ele>3.0</ele><time>2026-04-05T16:34:14Z</time></trkpt><trkpt lat="43.96050561714906" lon="10.168662590101617"><ele>3.0</ele><time>2026-04-05T16:34:21Z</time></trkpt><trkpt lat="43.960445661996964" lon="10.168563198788073"><ele>3.0</ele><time>2026-04-05T16:34:33Z</time></trkpt><trkpt lat="43.960370900536034" lon="10.168557553906679"><ele>3.0</ele><time>2026-04-05T16:34:40Z</time></trkpt><trkpt lat="43.960601963108104" lon="10.16848311948165"><ele>3.0</ele><time>2026-04-05T16:35:54Z</time></trkpt><trkpt lat="43.96041709651227" lon="10.168684339495908"><ele>3.0</ele><time>2026-04-05T16:36:07Z</time></trkpt><trkpt lat="43.96035589593676" lon="10.16875880453943"><ele>3.0</ele><time>2026-04-05T16:36:10Z</time></trkpt><trkpt lat="43.96028702190917" lon="10.168841913750212"><ele>3.0</ele><time>2026-04-05T16:36:13Z</time></trkpt><trkpt lat="43.960373961530834" lon="10.168773506327252"><ele>3.0</ele><time>2026-04-05T16:36:15Z</time></trkpt><trkpt lat="43.960258908266404" lon="10.168665397400762"><ele>3.0</ele><time>2026-04-05T16:36:19Z</time></trkpt><trkpt lat="43.96046380505764" lon="10.1684801304247"><ele>3.0</ele><time>2026-04-05T16:36:21Z</time></trkpt><trkpt lat="43.960531433680764" lon="10.16842033248207"><ele>3.0</ele><time>2026-04-05T16:36:27Z</time></trkpt><trkpt lat="43.96048220401658" lon="10.168499735733159"><ele>3.0</ele><time>2026-04-05T16:36:43Z</time></trkpt><trkpt lat="43.960436235188816" lon="10.168568843567943"><ele>3.0</ele><time>2026-04-05T16:36:48Z</time></trkpt><trkpt lat="43.96054966951625" lon="10.168510126459378"><ele>3.0</ele><time>2026-04-05T16:37:23Z</time></trkpt><trkpt lat="43.96047511488566" lon="10.168519230880698"><ele>3.0</ele><time>2026-04-05T16:37:30Z</time></trkpt><trkpt lat="43.960472317400885" lon="10.168417851093706"><ele>2.9999999999999996</ele><time>2026-04-05T16:38:12Z</time></trkpt><trkpt lat="43.960543248722274" lon="10.168468777424794"><ele>3.0</ele><time>2026-04-05T16:38:57Z</time></trkpt><trkpt lat="43.96048788884463" lon="10.168555809253274"><ele>3.0</ele><time>2026-04-05T16:39:06Z</time></trkpt><trkpt lat="43.960431882622395" lon="10.16859701253255"><ele>3.0</ele><time>2026-04-05T16:39:10Z</time></trkpt><trkpt lat="43.96037496020153" lon="10.168656326563989"><ele>3.0</ele><time>2026-04-05T16:39:15Z</time></trkpt><trkpt lat="43.96034216510109" lon="10.168741900086008"><ele>2.9999999999999996</ele><time>2026-04-05T16:39:20Z</time></trkpt><trkpt lat="43.960298668622826" lon="10.168814973887539"><ele>3.0</ele><time>2026-04-05T16:39:25Z</time></trkpt><trkpt lat="43.96024750559185" lon="10.168871059569465"><ele>2.9999999999999996</ele><time>2026-04-05T16:39:31Z</time></trkpt><trkpt lat="43.96019132787241" lon="10.168916961625575"><ele>3.0</ele><time>2026-04-05T16:39:37Z</time></trkpt><trkpt lat="43.96016951708608" lon="10.169009261228986"><ele>3.0</ele><time>2026-04-05T16:39:51Z</time></trkpt><trkpt lat="43.9601287225713" lon="10.16908685122095"><ele>3.0</ele><time>2026-04-05T16:39:57Z</time></trkpt><trkpt lat="43.960089888972234" lon="10.16917250165115"><ele>3.0</ele><time>2026-04-05T16:40:02Z</time></trkpt><trkpt lat="43.960028257137914" lon="10.169210528113108"><ele>2.9999999999999996</ele><time>2026-04-05T16:40:11Z</time></trkpt><trkpt lat="43.959968396719866" lon="10.169261759769398"><ele>3.0</ele><time>2026-04-05T16:40:19Z</time></trkpt><trkpt lat="43.95989963098142" lon="10.169280638547626"><ele>3.2857142857142856</ele><time>2026-04-05T16:40:24Z</time></trkpt><trkpt lat="43.959840265892836" lon="10.169310887545805"><ele>3.571428571428571</ele><time>2026-04-05T16:40:33Z</time></trkpt><trkpt lat="43.95977772579287" lon="10.169372978865045"><ele>3.8571428571428568</ele><time>2026-04-05T16:40:42Z</time></trkpt><trkpt lat="43.95970611406731" lon="10.169409569558555"><ele>4.142857142857142</ele><time>2026-04-05T16:40:48Z</time></trkpt><trkpt lat="43.95964732568149" lon="10.169445092748179"><ele>4.428571428571429</ele><time>2026-04-05T16:41:15Z</time></trkpt><trkpt lat="43.95964947813856" lon="10.169355110641586"><ele>4.714285714285714</ele><time>2026-04-05T16:41:20Z</time></trkpt><trkpt lat="43.95962227260872" lon="10.169263329816513"><ele>5.0</ele><time>2026-04-05T16:41:27Z</time></trkpt><trkpt lat="43.95960290702993" lon="10.169179330822812"><ele>5.0</ele><time>2026-04-05T16:41:34Z</time></trkpt><trkpt lat="43.95954399207322" lon="10.169123151773993"><ele>5.0</ele><time>2026-04-05T16:41:40Z</time></trkpt><trkpt lat="43.9594844362121" lon="10.169064086596467"><ele>5.0</ele><time>2026-04-05T16:41:47Z</time></trkpt><trkpt lat="43.95948851536148" lon="10.16897265532175"><ele>5.0</ele><time>2026-04-05T16:41:54Z</time></trkpt><trkpt lat="43.95954199274518" lon="10.168914589388498"><ele>5.0</ele><time>2026-04-05T16:42:02Z</time></trkpt><trkpt lat="43.95957868665462" lon="10.168831972469397"><ele>5.0</ele><time>2026-04-05T16:42:09Z</time></trkpt><trkpt lat="43.95963336972448" lon="10.168772899593057"><ele>5.0</ele><time>2026-04-05T16:42:16Z</time></trkpt><trkpt lat="43.95968852174419" lon="10.168711630177226"><ele>5.0</ele><time>2026-04-05T16:42:23Z</time></trkpt><trkpt lat="43.95973822156327" lon="10.168655998165205"><ele>5.0</ele><time>2026-04-05T16:42:30Z</time></trkpt><trkpt lat="43.959757519237854" lon="10.168568408145056"><ele>5.0</ele><time>2026-04-05T16:42:34Z</time></trkpt><trkpt lat="43.9597589711089" lon="10.168478970737349"><ele>5.0</ele><time>2026-04-05T16:42:37Z</time></trkpt><trkpt lat="43.95977584666259" lon="10.168389081832592"><ele>5.0</ele><time>2026-04-05T16:42:41Z</time></trkpt><trkpt lat="43.95982591625901" lon="10.168318673046"><ele>5.0</ele><time>2026-04-05T16:42:52Z</time></trkpt><trkpt lat="43.959897397025884" lon="10.16831705272782"><ele>5.0</ele><time>2026-04-05T16:42:56Z</time></trkpt><trkpt lat="43.959946216149596" lon="10.168246215453218"><ele>4.6</ele><time>2026-04-05T16:43:04Z</time></trkpt><trkpt lat="43.959975238201785" lon="10.16815858010598"><ele>4.2</ele><time>2026-04-05T16:43:11Z</time></trkpt><trkpt lat="43.960158636620825" lon="10.168166265633666"><ele>3.8</ele><time>2026-04-05T16:43:25Z</time></trkpt><trkpt lat="43.96022379461109" lon="10.168126043900315"><ele>3.4</ele><time>2026-04-05T16:43:31Z</time></trkpt><trkpt lat="43.96027840838507" lon="10.168058640368221"><ele>3.0</ele><time>2026-04-05T16:43:36Z</time></trkpt><trkpt lat="43.96033474353696" lon="10.168005397972953"><ele>2.9999999999999996</ele><time>2026-04-05T16:43:41Z</time></trkpt><trkpt lat="43.96038821227005" lon="10.16795453593012"><ele>3.0</ele><time>2026-04-05T16:43:49Z</time></trkpt><trkpt lat="43.96044787442839" lon="10.167900789199276"><ele>3.0</ele><time>2026-04-05T16:43:57Z</time></trkpt><trkpt lat="43.96048450701394" lon="10.167828689800036"><ele>3.0</ele><time>2026-04-05T16:44:03Z</time></trkpt><trkpt lat="43.960537641602784" lon="10.167779649849264"><ele>3.0</ele><time>2026-04-05T16:44:08Z</time></trkpt><trkpt lat="43.96058925047903" lon="10.16771990653748"><ele>2.9999999999999996</ele><time>2026-04-05T16:44:14Z</time></trkpt><trkpt lat="43.96062655900545" lon="10.167645550028174"><ele>3.0</ele><time>2026-04-05T16:44:19Z</time></trkpt><trkpt lat="43.96067858351138" lon="10.167586979209943"><ele>2.9999999999999996</ele><time>2026-04-05T16:44:27Z</time></trkpt><trkpt lat="43.960724237454514" lon="10.167523538000536"><ele>3.0</ele><time>2026-04-05T16:44:34Z</time></trkpt><trkpt lat="43.960767516877056" lon="10.167453785330467"><ele>3.0</ele><time>2026-04-05T16:44:39Z</time></trkpt><trkpt lat="43.96081649878316" lon="10.167395040353544"><ele>3.0</ele><time>2026-04-05T16:44:45Z</time></trkpt><trkpt lat="43.960873630258135" lon="10.167335503180205"><ele>3.0</ele><time>2026-04-05T16:44:51Z</time></trkpt><trkpt lat="43.96091883992756" lon="10.167259038121731"><ele>2.9999999999999996</ele><time>2026-04-05T16:44:58Z</time></trkpt><trkpt lat="43.96097843435709" lon="10.167215688460955"><ele>3.0</ele><time>2026-04-05T16:45:03Z</time></trkpt><trkpt lat="43.96102930916858" lon="10.16714645528513"><ele>2.8571428571428568</ele><time>2026-04-05T16:45:08Z</time></trkpt><trkpt lat="43.96106362281186" lon="10.167067352548653"><ele>2.7142857142857144</ele><time>2026-04-05T16:45:13Z</time></trkpt><trkpt lat="43.96111401219702" lon="10.166999609368878"><ele>2.571428571428571</ele><time>2026-04-05T16:45:18Z</time></trkpt><trkpt lat="43.96117125222912" lon="10.166944911376099"><ele>2.4285714285714284</ele><time>2026-04-05T16:45:24Z</time></trkpt><trkpt lat="43.96121745013116" lon="10.166866856195469"><ele>2.2857142857142856</ele><time>2026-04-05T16:45:30Z</time></trkpt><trkpt lat="43.96125957388003" lon="10.166788248075536"><ele>2.142857142857143</ele><time>2026-04-05T16:45:35Z</time></trkpt><trkpt lat="43.96131323187113" lon="10.166740962298237"><ele>2.0</ele><time>2026-04-05T16:45:41Z</time></trkpt><trkpt lat="43.961371330748705" lon="10.166688714161292"><ele>2.0</ele><time>2026-04-05T16:45:47Z</time></trkpt><trkpt lat="43.96142848603215" lon="10.16663496798723"><ele>1.9999999999999998</ele><time>2026-04-05T16:45:52Z</time></trkpt><trkpt lat="43.96147073327533" lon="10.166566156919256"><ele>2.0</ele><time>2026-04-05T16:45:57Z</time></trkpt><trkpt lat="43.9615353407175" lon="10.166539605828852"><ele>2.0</ele><time>2026-04-05T16:46:01Z</time></trkpt><trkpt lat="43.96157877931922" lon="10.1664580225605"><ele>1.9999999999999998</ele><time>2026-04-05T16:46:09Z</time></trkpt><trkpt lat="43.961582192006865" lon="10.166361856719453"><ele>2.0</ele><time>2026-04-05T16:46:13Z</time></trkpt><trkpt lat="43.96157378149034" lon="10.166252407985406"><ele>2.0</ele><time>2026-04-05T16:46:16Z</time></trkpt><trkpt lat="43.961640658854364" lon="10.166232852826848"><ele>2.0</ele><time>2026-04-05T16:46:21Z</time></trkpt><trkpt lat="43.961705587958534" lon="10.166244945241553"><ele>1.9999999999999998</ele><time>2026-04-05T16:46:25Z</time></trkpt><trkpt lat="43.96177071107864" lon="10.166228289065735"><ele>2.0</ele><time>2026-04-05T16:46:29Z</time></trkpt><trkpt lat="43.96183058945574" lon="10.166166159125732"><ele>2.0</ele><time>2026-04-05T16:46:35Z</time></trkpt><trkpt lat="43.96187469436687" lon="10.166101528139608"><ele>1.9999999999999998</ele><time>2026-04-05T16:46:42Z</time></trkpt><trkpt lat="43.961930647486106" lon="10.166037365654454"><ele>2.0</ele><time>2026-04-05T16:46:49Z</time></trkpt><trkpt lat="43.96197996937485" lon="10.165963253398429"><ele>2.0</ele><time>2026-04-05T16:46:54Z</time></trkpt><trkpt lat="43.96204332515049" lon="10.165923664859994"><ele>2.0</ele><time>2026-04-05T16:46:58Z</time></trkpt><trkpt lat="43.962092046233224" lon="10.165844484298239"><ele>1.9999999999999998</ele><time>2026-04-05T16:47:06Z</time></trkpt><trkpt lat="43.962144533565365" lon="10.165796125239757"><ele>2.0</ele><time>2026-04-05T16:47:11Z</time></trkpt><trkpt lat="43.96220080069126" lon="10.165724142992985"><ele>2.0</ele><time>2026-04-05T16:47:17Z</time></trkpt><trkpt lat="43.96224726914231" lon="10.165664930949719"><ele>1.9999999999999998</ele><time>2026-04-05T16:47:22Z</time></trkpt><trkpt lat="43.96230448910618" lon="10.165598691469748"><ele>2.0</ele><time>2026-04-05T16:47:28Z</time></trkpt><trkpt lat="43.96235227391431" lon="10.165535073892833"><ele>2.0</ele><time>2026-04-05T16:47:34Z</time></trkpt><trkpt lat="43.96240288187413" lon="10.165480416820554"><ele>2.0</ele><time>2026-04-05T16:47:39Z</time></trkpt><trkpt lat="43.962451460966314" lon="10.165424786923085"><ele>1.9999999999999998</ele><time>2026-04-05T16:47:44Z</time></trkpt><trkpt lat="43.96251000297025" lon="10.165359631171478"><ele>2.0</ele><time>2026-04-05T16:47:49Z</time></trkpt><trkpt lat="43.962558122469105" lon="10.165282615488533"><ele>2.0</ele><time>2026-04-05T16:47:56Z</time></trkpt><trkpt lat="43.96261478741771" lon="10.165223023699854"><ele>1.9999999999999998</ele><time>2026-04-05T16:48:02Z</time></trkpt><trkpt lat="43.96267310430315" lon="10.165149774109892"><ele>2.0</ele><time>2026-04-05T16:48:08Z</time></trkpt><trkpt lat="43.96273217572735" lon="10.165099024096731"><ele>2.0</ele><time>2026-04-05T16:48:13Z</time></trkpt><trkpt lat="43.96277191079558" lon="10.16502278518584"><ele>2.142857142857143</ele><time>2026-04-05T16:48:19Z</time></trkpt><trkpt lat="43.962826908347004" lon="10.16496726567021"><ele>2.2857142857142856</ele><time>2026-04-05T16:48:25Z</time></trkpt><trkpt lat="43.96288941205392" lon="10.164923166586714"><ele>2.4285714285714284</ele><time>2026-04-05T16:48:31Z</time></trkpt><trkpt lat="43.96295240254821" lon="10.164863357446013"><ele>2.571428571428571</ele><time>2026-04-05T16:48:40Z</time></trkpt><trkpt lat="43.96297996483279" lon="10.164770448812584"><ele>2.7142857142857144</ele><time>2026-04-05T16:48:45Z</time></trkpt><trkpt lat="43.96303679811369" lon="10.164710432125254"><ele>2.8571428571428568</ele><time>2026-04-05T16:48:51Z</time></trkpt><trkpt lat="43.9630841418999" lon="10.164649572218696"><ele>3.0</ele><time>2026-04-05T16:48:57Z</time></trkpt><trkpt lat="43.963123928968024" lon="10.16457819628297"><ele>2.9999999999999996</ele><time>2026-04-05T16:49:03Z</time></trkpt><trkpt lat="43.96319136001509" lon="10.164545936553477"><ele>3.0</ele><time>2026-04-05T16:49:09Z</time></trkpt><trkpt lat="43.96323951991731" lon="10.164472395865214"><ele>3.0</ele><time>2026-04-05T16:49:14Z</time></trkpt><trkpt lat="43.9632810310679" lon="10.164400752994098"><ele>3.0</ele><time>2026-04-05T16:49:19Z</time></trkpt><trkpt lat="43.963332549373504" lon="10.164341840079063"><ele>3.0</ele><time>2026-04-05T16:49:24Z</time></trkpt><trkpt lat="43.96337403334694" lon="10.16427119088572"><ele>2.9999999999999996</ele><time>2026-04-05T16:49:29Z</time></trkpt><trkpt lat="43.96343207753081" lon="10.164222951598628"><ele>3.0</ele><time>2026-04-05T16:49:35Z</time></trkpt><trkpt lat="43.96349205792972" lon="10.164185371779222"><ele>2.9999999999999996</ele><time>2026-04-05T16:49:40Z</time></trkpt><trkpt lat="43.963553317541695" lon="10.16413035166536"><ele>3.0</ele><time>2026-04-05T16:49:45Z</time></trkpt><trkpt lat="43.96358997682163" lon="10.16405771724268"><ele>3.0</ele><time>2026-04-05T16:49:51Z</time></trkpt><trkpt lat="43.96364243068069" lon="10.163990175954435"><ele>3.0</ele><time>2026-04-05T16:49:56Z</time></trkpt><trkpt lat="43.963703963288715" lon="10.163942835909296"><ele>3.0</ele><time>2026-04-05T16:50:01Z</time></trkpt><trkpt lat="43.96376159857449" lon="10.163889897677647"><ele>2.9999999999999996</ele><time>2026-04-05T16:50:07Z</time></trkpt><trkpt lat="43.96380807806517" lon="10.16382144794885"><ele>3.0</ele><time>2026-04-05T16:50:14Z</time></trkpt><trkpt lat="43.96386581082043" lon="10.163740867723666"><ele>2.9999999999999996</ele><time>2026-04-05T16:50:21Z</time></trkpt><trkpt lat="43.963917371475205" lon="10.163680287958133"><ele>3.0</ele><time>2026-04-05T16:50:27Z</time></trkpt><trkpt lat="43.96396234222334" lon="10.163608736804104"><ele>3.0</ele><time>2026-04-05T16:50:33Z</time></trkpt><trkpt lat="43.964012715737184" lon="10.163552884871851"><ele>3.0</ele><time>2026-04-05T16:50:38Z</time></trkpt><trkpt lat="43.96405726838435" lon="10.163486706162784"><ele>3.0</ele><time>2026-04-05T16:50:43Z</time></trkpt><trkpt lat="43.96410718732458" lon="10.163426220453557"><ele>2.9999999999999996</ele><time>2026-04-05T16:50:49Z</time></trkpt><trkpt lat="43.96415722202308" lon="10.1633624640612"><ele>3.0</ele><time>2026-04-05T16:50:55Z</time></trkpt><trkpt lat="43.964210122449416" lon="10.163311304764061"><ele>3.1428571428571423</ele><time>2026-04-05T16:51:00Z</time></trkpt><trkpt lat="43.964271415204465" lon="10.163247927432044"><ele>3.2857142857142856</ele><time>2026-04-05T16:51:07Z</time></trkpt><trkpt lat="43.964323726013745" lon="10.163186438637199"><ele>3.4285714285714284</ele><time>2026-04-05T16:51:12Z</time></trkpt><trkpt lat="43.96437355907898" lon="10.163126504276006"><ele>3.571428571428571</ele><time>2026-04-05T16:51:18Z</time></trkpt><trkpt lat="43.964414247595656" lon="10.163051369842039"><ele>3.714285714285714</ele><time>2026-04-05T16:51:24Z</time></trkpt><trkpt lat="43.96446786662293" lon="10.16299632615773"><ele>3.8571428571428568</ele><time>2026-04-05T16:51:29Z</time></trkpt><trkpt lat="43.964507972179995" lon="10.162913671113042"><ele>4.0</ele><time>2026-04-05T16:51:34Z</time></trkpt><trkpt lat="43.964563477782264" lon="10.162867234327218"><ele>4.142857142857142</ele><time>2026-04-05T16:51:40Z</time></trkpt><trkpt lat="43.96460984393456" lon="10.162800468118467"><ele>4.285714285714286</ele><time>2026-04-05T16:51:45Z</time></trkpt><trkpt lat="43.96467512480015" lon="10.16274704960229"><ele>4.428571428571429</ele><time>2026-04-05T16:51:51Z</time></trkpt><trkpt lat="43.964732220413936" lon="10.162693628513578"><ele>4.571428571428571</ele><time>2026-04-05T16:51:57Z</time></trkpt><trkpt lat="43.964791398609165" lon="10.16263876440892"><ele>4.714285714285714</ele><time>2026-04-05T16:52:03Z</time></trkpt><trkpt lat="43.964840948204795" lon="10.162583291287456"><ele>4.857142857142857</ele><time>2026-04-05T16:52:08Z</time></trkpt><trkpt lat="43.96487928235489" lon="10.162505948410304"><ele>5.0</ele><time>2026-04-05T16:52:14Z</time></trkpt><trkpt lat="43.96493326213919" lon="10.162439390595688"><ele>5.0</ele><time>2026-04-05T16:52:19Z</time></trkpt><trkpt lat="43.96498495243415" lon="10.162381668722945"><ele>5.0</ele><time>2026-04-05T16:52:25Z</time></trkpt><trkpt lat="43.965035385450236" lon="10.162317370425097"><ele>5.0</ele><time>2026-04-05T16:52:30Z</time></trkpt><trkpt lat="43.965089762088354" lon="10.162256700074868"><ele>5.0</ele><time>2026-04-05T16:52:36Z</time></trkpt><trkpt lat="43.96514054891327" lon="10.162196678304399"><ele>5.0</ele><time>2026-04-05T16:52:42Z</time></trkpt><trkpt lat="43.965178800027125" lon="10.162125681726915"><ele>5.0</ele><time>2026-04-05T16:52:48Z</time></trkpt><trkpt lat="43.965230409711616" lon="10.162060205715651"><ele>5.0</ele><time>2026-04-05T16:52:54Z</time></trkpt><trkpt lat="43.96528985565199" lon="10.162001601432769"><ele>5.142857142857142</ele><time>2026-04-05T16:52:59Z</time></trkpt><trkpt lat="43.96535503879063" lon="10.161960580624537"><ele>5.285714285714286</ele><time>2026-04-05T16:53:05Z</time></trkpt><trkpt lat="43.965400591273934" lon="10.161897158730977"><ele>5.428571428571429</ele><time>2026-04-05T16:53:10Z</time></trkpt><trkpt lat="43.96545768188998" lon="10.161834560776427"><ele>5.571428571428571</ele><time>2026-04-05T16:53:16Z</time></trkpt><trkpt lat="43.965505839926585" lon="10.161772351608532"><ele>5.714285714285714</ele><time>2026-04-05T16:53:21Z</time></trkpt><trkpt lat="43.96556733112414" lon="10.16171366010467"><ele>5.857142857142857</ele><time>2026-04-05T16:53:27Z</time></trkpt><trkpt lat="43.965605499695826" lon="10.161632193916958"><ele>6.0</ele><time>2026-04-05T16:53:33Z</time></trkpt><trkpt lat="43.9656531171753" lon="10.161562850087549"><ele>5.7142857142857135</ele><time>2026-04-05T16:53:39Z</time></trkpt><trkpt lat="43.965683533468166" lon="10.161478261377361"><ele>5.428571428571429</ele><time>2026-04-05T16:53:45Z</time></trkpt><trkpt lat="43.96573906084138" lon="10.161431978931745"><ele>5.142857142857142</ele><time>2026-04-05T16:53:51Z</time></trkpt><trkpt lat="43.96578969357444" lon="10.161368826158622"><ele>4.857142857142857</ele><time>2026-04-05T16:53:57Z</time></trkpt><trkpt lat="43.96582755724934" lon="10.161294430125318"><ele>4.571428571428571</ele><time>2026-04-05T16:54:02Z</time></trkpt><trkpt lat="43.96587592097108" lon="10.161235236442872"><ele>4.285714285714286</ele><time>2026-04-05T16:54:07Z</time></trkpt><trkpt lat="43.96592310048086" lon="10.16114775203032"><ele>4.0</ele><time>2026-04-05T16:54:14Z</time></trkpt><trkpt lat="43.9659827276094" lon="10.161098871759462"><ele>3.8571428571428568</ele><time>2026-04-05T16:54:20Z</time></trkpt><trkpt lat="43.966057170003914" lon="10.16108736109927"><ele>3.714285714285714</ele><time>2026-04-05T16:54:26Z</time></trkpt><trkpt lat="43.966118285344976" lon="10.161027399448702"><ele>3.571428571428571</ele><time>2026-04-05T16:54:31Z</time></trkpt><trkpt lat="43.96616911032723" lon="10.160961009413093"><ele>3.4285714285714284</ele><time>2026-04-05T16:54:37Z</time></trkpt><trkpt lat="43.96623275911885" lon="10.160914766746073"><ele>3.2857142857142856</ele><time>2026-04-05T16:54:43Z</time></trkpt><trkpt lat="43.966284574495276" lon="10.160844029779032"><ele>3.1428571428571423</ele><time>2026-04-05T16:54:49Z</time></trkpt><trkpt lat="43.966339893789495" lon="10.16079823942135"><ele>3.0</ele><time>2026-04-05T16:54:55Z</time></trkpt><trkpt lat="43.966386210191835" lon="10.16072351266493"><ele>2.9999999999999996</ele><time>2026-04-05T16:55:01Z</time></trkpt><trkpt lat="43.96643527658299" lon="10.160655551490153"><ele>3.0</ele><time>2026-04-05T16:55:06Z</time></trkpt><trkpt lat="43.966490999455054" lon="10.160598536827207"><ele>3.0</ele><time>2026-04-05T16:55:11Z</time></trkpt><trkpt lat="43.96653832659748" lon="10.160537425379633"><ele>3.0</ele><time>2026-04-05T16:55:17Z</time></trkpt><trkpt lat="43.966595496927745" lon="10.160489017816376"><ele>3.0</ele><time>2026-04-05T16:55:23Z</time></trkpt><trkpt lat="43.966644628399685" lon="10.160422952712263"><ele>2.9999999999999996</ele><time>2026-04-05T16:55:28Z</time></trkpt><trkpt lat="43.96669718701994" lon="10.160350413518616"><ele>3.0</ele><time>2026-04-05T16:55:34Z</time></trkpt><trkpt lat="43.966748575557915" lon="10.160289797970103"><ele>2.9999999999999996</ele><time>2026-04-05T16:55:40Z</time></trkpt><trkpt lat="43.96679478300861" lon="10.160230271984636"><ele>3.0</ele><time>2026-04-05T16:55:45Z</time></trkpt><trkpt lat="43.96684570581258" lon="10.16017448556909"><ele>3.0</ele><time>2026-04-05T16:55:50Z</time></trkpt><trkpt lat="43.966878970075" lon="10.160096489109204"><ele>3.0</ele><time>2026-04-05T16:55:55Z</time></trkpt><trkpt lat="43.96693283182124" lon="10.160042199526249"><ele>3.0</ele><time>2026-04-05T16:56:01Z</time></trkpt><trkpt lat="43.96699389216689" lon="10.15998810371311"><ele>2.9999999999999996</ele><time>2026-04-05T16:56:07Z</time></trkpt><trkpt lat="43.96703925910879" lon="10.159922371150875"><ele>3.0</ele><time>2026-04-05T16:56:13Z</time></trkpt><trkpt lat="43.967093172887864" lon="10.159857793475545"><ele>2.9999999999999996</ele><time>2026-04-05T16:56:20Z</time></trkpt><trkpt lat="43.96714810744579" lon="10.159795007626709"><ele>3.0</ele><time>2026-04-05T16:56:26Z</time></trkpt><trkpt lat="43.967199723638124" lon="10.159740304807023"><ele>3.0</ele><time>2026-04-05T16:56:31Z</time></trkpt><trkpt lat="43.96724976761643" lon="10.159660783017259"><ele>3.0</ele><time>2026-04-05T16:56:37Z</time></trkpt><trkpt lat="43.96730642619847" lon="10.159597842051355"><ele>3.0</ele><time>2026-04-05T16:56:43Z</time></trkpt><trkpt lat="43.967359444525165" lon="10.159543373729605"><ele>2.9999999999999996</ele><time>2026-04-05T16:56:48Z</time></trkpt><trkpt lat="43.967425105308884" lon="10.15949247884319"><ele>3.0</ele><time>2026-04-05T16:56:55Z</time></trkpt><trkpt lat="43.96746254739917" lon="10.159412278515832"><ele>2.9999999999999996</ele><time>2026-04-05T16:57:00Z</time></trkpt><trkpt lat="43.96751363646824" lon="10.159337197844753"><ele>3.0</ele><time>2026-04-05T16:57:06Z</time></trkpt><trkpt lat="43.9675779899072" lon="10.159287067841763"><ele>3.0</ele><time>2026-04-05T16:57:11Z</time></trkpt><trkpt lat="43.96763276353915" lon="10.159213477802425"><ele>3.0</ele><time>2026-04-05T16:57:18Z</time></trkpt><trkpt lat="43.96768957276224" lon="10.15917313283156"><ele>3.0</ele><time>2026-04-05T16:57:23Z</time></trkpt><trkpt lat="43.96773960554421" lon="10.15908881240505"><ele>2.9999999999999996</ele><time>2026-04-05T16:57:28Z</time></trkpt><trkpt lat="43.967784321033044" lon="10.159024132311249"><ele>3.0</ele><time>2026-04-05T16:57:34Z</time></trkpt><trkpt lat="43.96784230701762" lon="10.158974379890664"><ele>3.1428571428571423</ele><time>2026-04-05T16:57:41Z</time></trkpt><trkpt lat="43.967898656357676" lon="10.15892401413303"><ele>3.2857142857142856</ele><time>2026-04-05T16:57:46Z</time></trkpt><trkpt lat="43.96795322651621" lon="10.158855904573393"><ele>3.4285714285714284</ele><time>2026-04-05T16:57:52Z</time></trkpt><trkpt lat="43.96801128591673" lon="10.15878758740964"><ele>3.571428571428571</ele><time>2026-04-05T16:57:57Z</time></trkpt><trkpt lat="43.96805239151414" lon="10.158711909178558"><ele>3.714285714285714</ele><time>2026-04-05T16:58:03Z</time></trkpt><trkpt lat="43.96809883559379" lon="10.158640476982688"><ele>3.8571428571428568</ele><time>2026-04-05T16:58:08Z</time></trkpt><trkpt lat="43.96815401856164" lon="10.15859232468511"><ele>4.0</ele><time>2026-04-05T16:58:13Z</time></trkpt><trkpt lat="43.96820309666652" lon="10.158532472688291"><ele>4.0</ele><time>2026-04-05T16:58:18Z</time></trkpt><trkpt lat="43.96825351893385" lon="10.158461725131017"><ele>3.9999999999999996</ele><time>2026-04-05T16:58:24Z</time></trkpt><trkpt lat="43.96830612570612" lon="10.158403585377078"><ele>4.0</ele><time>2026-04-05T16:58:30Z</time></trkpt><trkpt lat="43.96836812675964" lon="10.158342624616983"><ele>4.0</ele><time>2026-04-05T16:58:36Z</time></trkpt><trkpt lat="43.968420800131916" lon="10.158271346849167"><ele>3.9999999999999996</ele><time>2026-04-05T16:58:41Z</time></trkpt><trkpt lat="43.96848270410482" lon="10.15822420510541"><ele>4.0</ele><time>2026-04-05T16:58:48Z</time></trkpt><trkpt lat="43.968523331736584" lon="10.158152934140766"><ele>4.0</ele><time>2026-04-05T16:58:53Z</time></trkpt><trkpt lat="43.96853123168651" lon="10.15805893571803"><ele>3.8571428571428568</ele><time>2026-04-05T16:59:02Z</time></trkpt><trkpt lat="43.96859951222891" lon="10.158020027432901"><ele>3.714285714285714</ele><time>2026-04-05T16:59:09Z</time></trkpt><trkpt lat="43.96865772656874" lon="10.157975375412878"><ele>3.571428571428571</ele><time>2026-04-05T16:59:15Z</time></trkpt><trkpt lat="43.96872434952203" lon="10.157933893268408"><ele>3.4285714285714284</ele><time>2026-04-05T16:59:23Z</time></trkpt><trkpt lat="43.96875464282687" lon="10.157844575543566"><ele>3.2857142857142856</ele><time>2026-04-05T16:59:28Z</time></trkpt><trkpt lat="43.96881717464645" lon="10.157793758700963"><ele>3.1428571428571423</ele><time>2026-04-05T16:59:34Z</time></trkpt><trkpt lat="43.968864071736206" lon="10.157734936205376"><ele>3.0</ele><time>2026-04-05T16:59:39Z</time></trkpt><trkpt lat="43.96891235134875" lon="10.157655227648183"><ele>2.9999999999999996</ele><time>2026-04-05T16:59:44Z</time></trkpt><trkpt lat="43.96897057723128" lon="10.15760458041801"><ele>3.0</ele><time>2026-04-05T16:59:50Z</time></trkpt><trkpt lat="43.96901559915786" lon="10.157539432899329"><ele>3.0</ele><time>2026-04-05T16:59:55Z</time></trkpt><trkpt lat="43.96907358289395" lon="10.157492287234058"><ele>3.0</ele><time>2026-04-05T17:00:00Z</time></trkpt><trkpt lat="43.9691170021052" lon="10.15741758023783"><ele>3.0</ele><time>2026-04-05T17:00:06Z</time></trkpt><trkpt lat="43.96917552535303" lon="10.157365524711448"><ele>2.9999999999999996</ele><time>2026-04-05T17:00:11Z</time></trkpt><trkpt lat="43.969200256930584" lon="10.157278845099244"><ele>3.0</ele><time>2026-04-05T17:00:17Z</time></trkpt><trkpt lat="43.96925853663467" lon="10.157225951346287"><ele>2.9999999999999996</ele><time>2026-04-05T17:00:23Z</time></trkpt><trkpt lat="43.96932818054429" lon="10.157183242016437"><ele>3.0</ele><time>2026-04-05T17:00:29Z</time></trkpt><trkpt lat="43.969386439408545" lon="10.157132832293337"><ele>3.0</ele><time>2026-04-05T17:00:34Z</time></trkpt><trkpt lat="43.9694578871503" lon="10.157068913119605"><ele>3.0</ele><time>2026-04-05T17:00:45Z</time></trkpt><trkpt lat="43.96950931606715" lon="10.157017823462706"><ele>3.0</ele><time>2026-04-05T17:00:51Z</time></trkpt><trkpt lat="43.96957603626137" lon="10.156965084187716"><ele>2.9999999999999996</ele><time>2026-04-05T17:01:00Z</time></trkpt><trkpt lat="43.96963258238739" lon="10.156921804112375"><ele>3.0</ele><time>2026-04-05T17:01:05Z</time></trkpt><trkpt lat="43.969692818947394" lon="10.156875962611037"><ele>2.9999999999999996</ele><time>2026-04-05T17:01:09Z</time></trkpt><trkpt lat="43.96973389852125" lon="10.156802215457708"><ele>3.0</ele><time>2026-04-05T17:01:14Z</time></trkpt><trkpt lat="43.96976252434616" lon="10.1567084104908"><ele>3.0</ele><time>2026-04-05T17:01:21Z</time></trkpt><trkpt lat="43.969822847656665" lon="10.156671076671422"><ele>3.0</ele><time>2026-04-05T17:01:38Z</time></trkpt><trkpt lat="43.969862884646055" lon="10.156592018770459"><ele>3.0</ele><time>2026-04-05T17:01:44Z</time></trkpt><trkpt lat="43.96990774509021" lon="10.15652263046334"><ele>2.9999999999999996</ele><time>2026-04-05T17:01:49Z</time></trkpt><trkpt lat="43.96996322897933" lon="10.156464231217926"><ele>3.0</ele><time>2026-04-05T17:01:57Z</time></trkpt><trkpt lat="43.96998759816503" lon="10.156376825317231"><ele>3.1428571428571423</ele><time>2026-04-05T17:02:02Z</time></trkpt><trkpt lat="43.97004566400534" lon="10.15632339064389"><ele>3.2857142857142856</ele><time>2026-04-05T17:02:08Z</time></trkpt><trkpt lat="43.97001525107681" lon="10.156246118611913"><ele>3.4285714285714284</ele><time>2026-04-05T17:02:16Z</time></trkpt><trkpt lat="43.97004102036687" lon="10.15616160315756"><ele>3.571428571428571</ele><time>2026-04-05T17:02:40Z</time></trkpt><trkpt lat="43.97009968471086" lon="10.156103895323813"><ele>3.714285714285714</ele><time>2026-04-05T17:02:47Z</time></trkpt><trkpt lat="43.97015623182725" lon="10.156055709855451"><ele>3.8571428571428568</ele><time>2026-04-05T17:02:54Z</time></trkpt><trkpt lat="43.970232005053035" lon="10.156007650134383"><ele>4.0</ele><time>2026-04-05T17:03:01Z</time></trkpt><trkpt lat="43.97027040427555" lon="10.155925456231717"><ele>3.9999999999999996</ele><time>2026-04-05T17:03:08Z</time></trkpt><trkpt lat="43.970358291613444" lon="10.155869691801406"><ele>4.0</ele><time>2026-04-05T17:03:19Z</time></trkpt><trkpt lat="43.97044048653936" lon="10.155782105729708"><ele>4.0</ele><time>2026-04-05T17:03:29Z</time></trkpt><trkpt lat="43.97049892794784" lon="10.15574503224955"><ele>4.0</ele><time>2026-04-05T17:03:35Z</time></trkpt><trkpt lat="43.970559106605634" lon="10.155681163122924"><ele>3.9999999999999996</ele><time>2026-04-05T17:03:43Z</time></trkpt><trkpt lat="43.97061762140781" lon="10.155627418911948"><ele>4.0</ele><time>2026-04-05T17:03:48Z</time></trkpt><trkpt lat="43.97066235773647" lon="10.155554920016865"><ele>3.8571428571428568</ele><time>2026-04-05T17:03:53Z</time></trkpt><trkpt lat="43.970717312860415" lon="10.15550043756557"><ele>3.714285714285714</ele><time>2026-04-05T17:03:58Z</time></trkpt><trkpt lat="43.970767367449" lon="10.155444405377514"><ele>3.571428571428571</ele><time>2026-04-05T17:04:03Z</time></trkpt><trkpt lat="43.97082832819433" lon="10.155389481861201"><ele>3.4285714285714284</ele><time>2026-04-05T17:04:09Z</time></trkpt><trkpt lat="43.97088073651233" lon="10.155335390226657"><ele>3.2857142857142856</ele><time>2026-04-05T17:04:14Z</time></trkpt><trkpt lat="43.970923371861396" lon="10.15527028782741"><ele>3.1428571428571423</ele><time>2026-04-05T17:04:20Z</time></trkpt><trkpt lat="43.97097583056053" lon="10.155217452152993"><ele>3.0</ele><time>2026-04-05T17:04:28Z</time></trkpt><trkpt lat="43.97103009067109" lon="10.155145996687784"><ele>2.9999999999999996</ele><time>2026-04-05T17:04:35Z</time></trkpt><trkpt lat="43.97108304254057" lon="10.155086450799464"><ele>3.0</ele><time>2026-04-05T17:04:42Z</time></trkpt><trkpt lat="43.971134195313724" lon="10.155021325940636"><ele>3.0</ele><time>2026-04-05T17:04:49Z</time></trkpt><trkpt lat="43.971176917583165" lon="10.154947216865983"><ele>3.0</ele><time>2026-04-05T17:04:54Z</time></trkpt><trkpt lat="43.97120454883009" lon="10.154858330117866"><ele>3.0</ele><time>2026-04-05T17:04:59Z</time></trkpt><trkpt lat="43.97126673203785" lon="10.154815018849545"><ele>2.9999999999999996</ele><time>2026-04-05T17:05:05Z</time></trkpt><trkpt lat="43.971305402851016" lon="10.154743776013085"><ele>3.0</ele><time>2026-04-05T17:05:12Z</time></trkpt><trkpt lat="43.97137600623425" lon="10.154695117159049"><ele>2.9999999999999996</ele><time>2026-04-05T17:05:19Z</time></trkpt><trkpt lat="43.9714355485815" lon="10.154658208800335"><ele>3.0</ele><time>2026-04-05T17:05:24Z</time></trkpt><trkpt lat="43.9714914856547" lon="10.154588788777652"><ele>3.0</ele><time>2026-04-05T17:05:29.999Z</time></trkpt><trkpt lat="43.97152810012712" lon="10.15451293929901"><ele>3.0</ele><time>2026-04-05T17:05:35.999Z</time></trkpt><trkpt lat="43.971588221446055" lon="10.154457864762046"><ele>3.0</ele><time>2026-04-05T17:05:42Z</time></trkpt><trkpt lat="43.971642391263515" lon="10.154410176624268"><ele>2.9999999999999996</ele><time>2026-04-05T17:05:47Z</time></trkpt><trkpt lat="43.97169894833999" lon="10.154350636395911"><ele>3.0</ele><time>2026-04-05T17:05:53Z</time></trkpt><trkpt lat="43.97174613614519" lon="10.154287880091525"><ele>2.9999999999999996</ele><time>2026-04-05T17:05:59Z</time></trkpt><trkpt lat="43.97179512221022" lon="10.154217456458548"><ele>3.0</ele><time>2026-04-05T17:06:04Z</time></trkpt><trkpt lat="43.9718542378037" lon="10.154170312354015"><ele>3.0</ele><time>2026-04-05T17:06:11Z</time></trkpt><trkpt lat="43.97190250262729" lon="10.15410680077849"><ele>3.0</ele><time>2026-04-05T17:06:16Z</time></trkpt><trkpt lat="43.971960980461425" lon="10.154047277259135"><ele>3.0</ele><time>2026-04-05T17:06:22Z</time></trkpt><trkpt lat="43.97200317320553" lon="10.153961373848999"><ele>2.9999999999999996</ele><time>2026-04-05T17:06:28Z</time></trkpt><trkpt lat="43.972060504506544" lon="10.153921247502893"><ele>3.0</ele><time>2026-04-05T17:06:33Z</time></trkpt><trkpt lat="43.972116764763555" lon="10.153879358913368"><ele>2.8571428571428568</ele><time>2026-04-05T17:06:38Z</time></trkpt><trkpt lat="43.97216977292946" lon="10.153819262748476"><ele>2.7142857142857144</ele><time>2026-04-05T17:06:45Z</time></trkpt><trkpt lat="43.97220629994075" lon="10.15372879925601"><ele>2.571428571428571</ele><time>2026-04-05T17:06:50Z</time></trkpt><trkpt lat="43.9722592668093" lon="10.153678550739015"><ele>2.4285714285714284</ele><time>2026-04-05T17:06:55Z</time></trkpt><trkpt lat="43.97231913287481" lon="10.153613364017561"><ele>2.2857142857142856</ele><time>2026-04-05T17:07:01Z</time></trkpt><trkpt lat="43.97236915338284" lon="10.15353629536106"><ele>2.142857142857143</ele><time>2026-04-05T17:07:06Z</time></trkpt><trkpt lat="43.97242319390345" lon="10.153469345997886"><ele>2.0</ele><time>2026-04-05T17:07:13Z</time></trkpt><trkpt lat="43.97247826401984" lon="10.153397562698789"><ele>2.142857142857143</ele><time>2026-04-05T17:07:19Z</time></trkpt><trkpt lat="43.97253697045077" lon="10.153355223385885"><ele>2.2857142857142856</ele><time>2026-04-05T17:07:24Z</time></trkpt><trkpt lat="43.97259068227345" lon="10.153281981037244"><ele>2.4285714285714284</ele><time>2026-04-05T17:07:29Z</time></trkpt><trkpt lat="43.972642839405744" lon="10.153213580879752"><ele>2.571428571428571</ele><time>2026-04-05T17:07:35Z</time></trkpt><trkpt lat="43.972678982938255" lon="10.153136924782068"><ele>2.7142857142857144</ele><time>2026-04-05T17:07:42Z</time></trkpt><trkpt lat="43.97274722062109" lon="10.153092043319853"><ele>2.8571428571428568</ele><time>2026-04-05T17:07:48Z</time></trkpt><trkpt lat="43.97279809084866" lon="10.1530238688267"><ele>3.0</ele><time>2026-04-05T17:07:54Z</time></trkpt><trkpt lat="43.972852325213" lon="10.152954783074845"><ele>3.1428571428571423</ele><time>2026-04-05T17:07:59Z</time></trkpt><trkpt lat="43.97290432707295" lon="10.152896464982753"><ele>3.2857142857142856</ele><time>2026-04-05T17:08:05Z</time></trkpt><trkpt lat="43.972947024665814" lon="10.152801373896612"><ele>3.4285714285714284</ele><time>2026-04-05T17:08:11Z</time></trkpt><trkpt lat="43.973009592086406" lon="10.152764062732464"><ele>3.571428571428571</ele><time>2026-04-05T17:08:17Z</time></trkpt><trkpt lat="43.97306598305996" lon="10.152710275943452"><ele>3.714285714285714</ele><time>2026-04-05T17:08:22Z</time></trkpt><trkpt lat="43.97311527021137" lon="10.152649430580158"><ele>3.8571428571428568</ele><time>2026-04-05T17:08:27Z</time></trkpt><trkpt lat="43.97317393287536" lon="10.152593506299075"><ele>4.0</ele><time>2026-04-05T17:08:33Z</time></trkpt><trkpt lat="43.973229222970474" lon="10.152536862634877"><ele>4.0</ele><time>2026-04-05T17:08:38Z</time></trkpt><trkpt lat="43.97327398505332" lon="10.15246718862054"><ele>3.9999999999999996</ele><time>2026-04-05T17:08:43Z</time></trkpt><trkpt lat="43.97333590476591" lon="10.15241929869986"><ele>4.0</ele><time>2026-04-05T17:08:49Z</time></trkpt><trkpt lat="43.97339118963942" lon="10.152350505432032"><ele>4.0</ele><time>2026-04-05T17:08:54Z</time></trkpt><trkpt lat="43.97342443034675" lon="10.152275572654709"><ele>3.9999999999999996</ele><time>2026-04-05T17:09:01Z</time></trkpt><trkpt lat="43.97348626157351" lon="10.152226221400909"><ele>4.0</ele><time>2026-04-05T17:09:05Z</time></trkpt><trkpt lat="43.97353384905933" lon="10.15215104823439"><ele>4.0</ele><time>2026-04-05T17:09:11Z</time></trkpt><trkpt lat="43.97358153800206" lon="10.152086913483432"><ele>3.8571428571428568</ele><time>2026-04-05T17:09:16Z</time></trkpt><trkpt lat="43.97362554489595" lon="10.152018193810964"><ele>3.714285714285714</ele><time>2026-04-05T17:09:23Z</time></trkpt><trkpt lat="43.97369540611992" lon="10.15196431895486"><ele>3.571428571428571</ele><time>2026-04-05T17:09:29Z</time></trkpt><trkpt lat="43.97373870570056" lon="10.151891881367375"><ele>3.4285714285714284</ele><time>2026-04-05T17:09:34Z</time></trkpt><trkpt lat="43.97379805726632" lon="10.151830902915965"><ele>3.2857142857142856</ele><time>2026-04-05T17:09:40Z</time></trkpt><trkpt lat="43.97385806280019" lon="10.15176680919636"><ele>3.1428571428571423</ele><time>2026-04-05T17:09:46Z</time></trkpt><trkpt lat="43.97390840328549" lon="10.1517056622868"><ele>3.0</ele><time>2026-04-05T17:09:51Z</time></trkpt><trkpt lat="43.97395865671538" lon="10.15165164452399"><ele>2.9999999999999996</ele><time>2026-04-05T17:09:57Z</time></trkpt><trkpt lat="43.97401412720354" lon="10.151591349193197"><ele>3.0</ele><time>2026-04-05T17:10:02Z</time></trkpt><trkpt lat="43.97406503596734" lon="10.151527088403077"><ele>3.0</ele><time>2026-04-05T17:10:08Z</time></trkpt><trkpt lat="43.97411978891588" lon="10.151457755996855"><ele>3.0</ele><time>2026-04-05T17:10:14Z</time></trkpt><trkpt lat="43.97417298844476" lon="10.151409835472675"><ele>3.0</ele><time>2026-04-05T17:10:19Z</time></trkpt><trkpt lat="43.97423623376383" lon="10.151353540200294"><ele>2.9999999999999996</ele><time>2026-04-05T17:10:26Z</time></trkpt><trkpt lat="43.97428280082818" lon="10.151291999714061"><ele>3.0</ele><time>2026-04-05T17:10:31Z</time></trkpt><trkpt lat="43.974343117892246" lon="10.151238458359238"><ele>3.2857142857142856</ele><time>2026-04-05T17:10:36Z</time></trkpt><trkpt lat="43.974401084730474" lon="10.151189678648056"><ele>3.571428571428571</ele><time>2026-04-05T17:10:41Z</time></trkpt><trkpt lat="43.97446148572798" lon="10.151129802921439"><ele>3.8571428571428568</ele><time>2026-04-05T17:10:46Z</time></trkpt><trkpt lat="43.97451391645362" lon="10.151066760867984"><ele>4.142857142857142</ele><time>2026-04-05T17:10:52Z</time></trkpt><trkpt lat="43.97457227868492" lon="10.151004440925623"><ele>4.428571428571429</ele><time>2026-04-05T17:10:57Z</time></trkpt><trkpt lat="43.97462856291942" lon="10.150959307790883"><ele>4.714285714285714</ele><time>2026-04-05T17:11:03Z</time></trkpt><trkpt lat="43.97467140002925" lon="10.150891608583521"><ele>5.0</ele><time>2026-04-05T17:11:07Z</time></trkpt><trkpt lat="43.974718947938655" lon="10.150815681907577"><ele>5.0</ele><time>2026-04-05T17:11:13Z</time></trkpt><trkpt lat="43.97476075201077" lon="10.150746504536304"><ele>5.0</ele><time>2026-04-05T17:11:18Z</time></trkpt><trkpt lat="43.9748089620896" lon="10.150679405767061"><ele>5.0</ele><time>2026-04-05T17:11:24Z</time></trkpt><trkpt lat="43.97486150475736" lon="10.150616935701025"><ele>5.0</ele><time>2026-04-05T17:11:30Z</time></trkpt><trkpt lat="43.9749192166553" lon="10.150555095140492"><ele>5.0</ele><time>2026-04-05T17:11:36Z</time></trkpt><trkpt lat="43.9749640221287" lon="10.150481738377701"><ele>5.0</ele><time>2026-04-05T17:11:42Z</time></trkpt><trkpt lat="43.97502091153638" lon="10.150433000351438"><ele>5.0</ele><time>2026-04-05T17:11:47Z</time></trkpt><trkpt lat="43.97507204834792" lon="10.150368649017956"><ele>5.0</ele><time>2026-04-05T17:11:53Z</time></trkpt><trkpt lat="43.97512316029394" lon="10.150309508100483"><ele>5.0</ele><time>2026-04-05T17:11:59Z</time></trkpt><trkpt lat="43.975189692938535" lon="10.150253425766243"><ele>5.0</ele><time>2026-04-05T17:12:05Z</time></trkpt><trkpt lat="43.97524980940165" lon="10.150210823155243"><ele>5.0</ele><time>2026-04-05T17:12:10Z</time></trkpt><trkpt lat="43.975318114365926" lon="10.150164302383951"><ele>5.0</ele><time>2026-04-05T17:12:15Z</time></trkpt><trkpt lat="43.97537240349995" lon="10.150060186340095"><ele>5.0</ele><time>2026-04-05T17:12:21Z</time></trkpt><trkpt lat="43.97542274794673" lon="10.15000422918348"><ele>5.0</ele><time>2026-04-05T17:12:29Z</time></trkpt><trkpt lat="43.97544728175668" lon="10.149914328987853"><ele>4.714285714285714</ele><time>2026-04-05T17:12:34Z</time></trkpt><trkpt lat="43.97550529294129" lon="10.149841793437563"><ele>4.428571428571429</ele><time>2026-04-05T17:12:40Z</time></trkpt><trkpt lat="43.97556459443516" lon="10.149783566453626"><ele>4.142857142857142</ele><time>2026-04-05T17:12:46Z</time></trkpt><trkpt lat="43.975616598359345" lon="10.14971887139768"><ele>3.8571428571428568</ele><time>2026-04-05T17:12:52Z</time></trkpt><trkpt lat="43.975668126129584" lon="10.149651966180581"><ele>3.571428571428571</ele><time>2026-04-05T17:12:57Z</time></trkpt><trkpt lat="43.97572939679235" lon="10.149609272272308"><ele>3.2857142857142856</ele><time>2026-04-05T17:13:02Z</time></trkpt><trkpt lat="43.97577155101976" lon="10.149517621127792"><ele>3.0</ele><time>2026-04-05T17:13:08Z</time></trkpt><trkpt lat="43.97582746524372" lon="10.149454315737216"><ele>2.9999999999999996</ele><time>2026-04-05T17:13:14Z</time></trkpt><trkpt lat="43.97587474235662" lon="10.149383387088928"><ele>3.0</ele><time>2026-04-05T17:13:19Z</time></trkpt><trkpt lat="43.975936978133696" lon="10.149335324165547"><ele>3.0</ele><time>2026-04-05T17:13:24Z</time></trkpt><trkpt lat="43.975994533637426" lon="10.149260417620871"><ele>3.0</ele><time>2026-04-05T17:13:31Z</time></trkpt><trkpt lat="43.97605306956566" lon="10.149192984440239"><ele>3.0</ele><time>2026-04-05T17:13:37Z</time></trkpt><trkpt lat="43.97609334556487" lon="10.149121212885065"><ele>2.9999999999999996</ele><time>2026-04-05T17:13:43Z</time></trkpt><trkpt lat="43.976145126284315" lon="10.149061937749085"><ele>3.0</ele><time>2026-04-05T17:13:48Z</time></trkpt><trkpt lat="43.976191259018954" lon="10.148984778472752"><ele>2.9999999999999996</ele><time>2026-04-05T17:13:54Z</time></trkpt><trkpt lat="43.97626203435361" lon="10.148943987154182"><ele>3.0</ele><time>2026-04-05T17:13:59Z</time></trkpt><trkpt lat="43.97629942089852" lon="10.148856942486773"><ele>3.0</ele><time>2026-04-05T17:14:05Z</time></trkpt><trkpt lat="43.97634780955711" lon="10.148797639638737"><ele>3.0</ele><time>2026-04-05T17:14:11Z</time></trkpt><trkpt lat="43.97640098760987" lon="10.148722801549376"><ele>3.0</ele><time>2026-04-05T17:14:17Z</time></trkpt><trkpt lat="43.97645854263474" lon="10.148665582070889"><ele>2.9999999999999996</ele><time>2026-04-05T17:14:23Z</time></trkpt><trkpt lat="43.97650754389203" lon="10.148609331897468"><ele>3.0</ele><time>2026-04-05T17:14:29Z</time></trkpt><trkpt lat="43.976564097464895" lon="10.148551213032947"><ele>2.9999999999999996</ele><time>2026-04-05T17:14:34Z</time></trkpt><trkpt lat="43.97661401804414" lon="10.148490173809186"><ele>3.0</ele><time>2026-04-05T17:14:40Z</time></trkpt><trkpt lat="43.97666156907066" lon="10.148428777857692"><ele>3.0</ele><time>2026-04-05T17:14:46Z</time></trkpt><trkpt lat="43.9767262659833" lon="10.148373072218375"><ele>3.0</ele><time>2026-04-05T17:14:52Z</time></trkpt><trkpt lat="43.97677304028261" lon="10.148311740407477"><ele>3.0</ele><time>2026-04-05T17:14:58Z</time></trkpt><trkpt lat="43.9768076292083" lon="10.148227864690456"><ele>2.9999999999999996</ele><time>2026-04-05T17:15:03Z</time></trkpt><trkpt lat="43.976876477492155" lon="10.14817902551247"><ele>3.0</ele><time>2026-04-05T17:15:09Z</time></trkpt><trkpt lat="43.97693107666483" lon="10.148128776891397"><ele>2.9999999999999996</ele><time>2026-04-05T17:15:14Z</time></trkpt><trkpt lat="43.976977343736465" lon="10.148059170617177"><ele>3.0</ele><time>2026-04-05T17:15:22Z</time></trkpt><trkpt lat="43.977022959504474" lon="10.147972528700878"><ele>3.0</ele><time>2026-04-05T17:15:28Z</time></trkpt><trkpt lat="43.97708041676336" lon="10.147905446283847"><ele>3.0</ele><time>2026-04-05T17:15:35Z</time></trkpt><trkpt lat="43.97714342726974" lon="10.147850433209667"><ele>3.0</ele><time>2026-04-05T17:15:41Z</time></trkpt><trkpt lat="43.97720110920816" lon="10.147814947704736"><ele>2.9999999999999996</ele><time>2026-04-05T17:15:46Z</time></trkpt><trkpt lat="43.97724150501631" lon="10.147747430427717"><ele>3.0</ele><time>2026-04-05T17:15:53Z</time></trkpt><trkpt lat="43.9772916083209" lon="10.147683951646389"><ele>2.9999999999999996</ele><time>2026-04-05T17:16:00Z</time></trkpt><trkpt lat="43.977340920671764" lon="10.147619059084285"><ele>3.0</ele><time>2026-04-05T17:16:06Z</time></trkpt><trkpt lat="43.97736953682845" lon="10.14753169841044"><ele>3.0</ele><time>2026-04-05T17:16:11Z</time></trkpt><trkpt lat="43.97744481978327" lon="10.147495864661913"><ele>3.0</ele><time>2026-04-05T17:16:17Z</time></trkpt><trkpt lat="43.977499086881245" lon="10.147425378885986"><ele>3.0</ele><time>2026-04-05T17:16:23Z</time></trkpt><trkpt lat="43.97753972062893" lon="10.14735262205213"><ele>2.9999999999999996</ele><time>2026-04-05T17:16:30Z</time></trkpt><trkpt lat="43.97760986969643" lon="10.147306395475594"><ele>3.0</ele><time>2026-04-05T17:16:36Z</time></trkpt><trkpt lat="43.9776734884989" lon="10.147267395300807"><ele>3.1428571428571423</ele><time>2026-04-05T17:16:41Z</time></trkpt><trkpt lat="43.977733128401866" lon="10.147206670223142"><ele>3.2857142857142856</ele><time>2026-04-05T17:16:47Z</time></trkpt><trkpt lat="43.9777790283656" lon="10.147144431013446"><ele>3.4285714285714284</ele><time>2026-04-05T17:16:52Z</time></trkpt><trkpt lat="43.97781871778512" lon="10.147055024928209"><ele>3.571428571428571</ele><time>2026-04-05T17:16:58Z</time></trkpt><trkpt lat="43.97786220339794" lon="10.146971766733854"><ele>3.714285714285714</ele><time>2026-04-05T17:17:06Z</time></trkpt><trkpt lat="43.97791803490467" lon="10.14691339583058"><ele>3.8571428571428568</ele><time>2026-04-05T17:17:12Z</time></trkpt><trkpt lat="43.97797045387738" lon="10.146858422153022"><ele>4.0</ele><time>2026-04-05T17:17:22Z</time></trkpt><trkpt lat="43.97802223757563" lon="10.146802605437612"><ele>4.0</ele><time>2026-04-05T17:17:26Z</time></trkpt><trkpt lat="43.978081394499846" lon="10.146751224371206"><ele>3.9999999999999996</ele><time>2026-04-05T17:17:33Z</time></trkpt><trkpt lat="43.97812506662721" lon="10.14668803854844"><ele>4.0</ele><time>2026-04-05T17:17:39Z</time></trkpt><trkpt lat="43.978179329877086" lon="10.146615737635823"><ele>4.0</ele><time>2026-04-05T17:17:46Z</time></trkpt><trkpt lat="43.9782317138433" lon="10.146564596566877"><ele>3.9999999999999996</ele><time>2026-04-05T17:17:51Z</time></trkpt><trkpt lat="43.978281567844625" lon="10.146487867545286"><ele>4.0</ele><time>2026-04-05T17:17:57Z</time></trkpt><trkpt lat="43.97833445943156" lon="10.146438646529406"><ele>4.0</ele><time>2026-04-05T17:18:02Z</time></trkpt><trkpt lat="43.97838398212936" lon="10.146352866119466"><ele>4.0</ele><time>2026-04-05T17:18:09Z</time></trkpt><trkpt lat="43.97843786472099" lon="10.146290912546606"><ele>3.9999999999999996</ele><time>2026-04-05T17:18:16Z</time></trkpt><trkpt lat="43.97849402763406" lon="10.146232550294938"><ele>4.0</ele><time>2026-04-05T17:18:22Z</time></trkpt><trkpt lat="43.97854950455702" lon="10.146167005967646"><ele>4.0</ele><time>2026-04-05T17:18:27Z</time></trkpt><trkpt lat="43.97860918264418" lon="10.146093606054592"><ele>3.9999999999999996</ele><time>2026-04-05T17:18:34Z</time></trkpt><trkpt lat="43.97865060199162" lon="10.146024093219264"><ele>4.0</ele><time>2026-04-05T17:18:39Z</time></trkpt><trkpt lat="43.97869801791" lon="10.145946332661294"><ele>4.0</ele><time>2026-04-05T17:18:45Z</time></trkpt><trkpt lat="43.97877273293466" lon="10.145919395752763"><ele>4.0</ele><time>2026-04-05T17:18:52Z</time></trkpt><trkpt lat="43.97882827255007" lon="10.145870500114702"><ele>3.9999999999999996</ele><time>2026-04-05T17:18:57Z</time></trkpt><trkpt lat="43.9788961315419" lon="10.145823088283406"><ele>4.0</ele><time>2026-04-05T17:19:02Z</time></trkpt><trkpt lat="43.978914358782454" lon="10.145736089985295"><ele>4.0</ele><time>2026-04-05T17:19:07Z</time></trkpt><trkpt lat="43.97895984321464" lon="10.14566183191999"><ele>3.9999999999999996</ele><time>2026-04-05T17:19:14Z</time></trkpt><trkpt lat="43.97900825542677" lon="10.14560105259855"><ele>4.0</ele><time>2026-04-05T17:19:20Z</time></trkpt><trkpt lat="43.979056837349496" lon="10.145537941121264"><ele>4.0</ele><time>2026-04-05T17:19:26Z</time></trkpt><trkpt lat="43.9791252620345" lon="10.145486047471518"><ele>3.8571428571428568</ele><time>2026-04-05T17:19:32Z</time></trkpt><trkpt lat="43.97918798314514" lon="10.145470409912338"><ele>3.714285714285714</ele><time>2026-04-05T17:19:37Z</time></trkpt><trkpt lat="43.979212305108916" lon="10.145370190581195"><ele>3.571428571428571</ele><time>2026-04-05T17:19:41Z</time></trkpt><trkpt lat="43.97927462472054" lon="10.145350756385874"><ele>3.4285714285714284</ele><time>2026-04-05T17:19:46Z</time></trkpt><trkpt lat="43.97934694643327" lon="10.145326953778811"><ele>3.2857142857142856</ele><time>2026-04-05T17:19:52Z</time></trkpt><trkpt lat="43.97937810481731" lon="10.145247082426609"><ele>3.1428571428571423</ele><time>2026-04-05T17:19:58Z</time></trkpt><trkpt lat="43.9794104384754" lon="10.145155682625148"><ele>3.0</ele><time>2026-04-05T17:20:04Z</time></trkpt><trkpt lat="43.979459456649636" lon="10.145091431834887"><ele>2.9999999999999996</ele><time>2026-04-05T17:20:09Z</time></trkpt><trkpt lat="43.979512706563895" lon="10.145043490450337"><ele>3.0</ele><time>2026-04-05T17:20:15Z</time></trkpt><trkpt lat="43.979553446095075" lon="10.144970974212894"><ele>3.0</ele><time>2026-04-05T17:20:20Z</time></trkpt><trkpt lat="43.97961424092814" lon="10.144919671809431"><ele>3.0</ele><time>2026-04-05T17:20:25Z</time></trkpt><trkpt lat="43.979682969166845" lon="10.144862390422857"><ele>3.0</ele><time>2026-04-05T17:20:32Z</time></trkpt><trkpt lat="43.97974101925067" lon="10.144793726726851"><ele>2.9999999999999996</ele><time>2026-04-05T17:20:37Z</time></trkpt><trkpt lat="43.97979602875608" lon="10.1447351891546"><ele>3.0</ele><time>2026-04-05T17:20:43Z</time></trkpt><trkpt lat="43.97985550309746" lon="10.144692233593167"><ele>2.9999999999999996</ele><time>2026-04-05T17:20:48Z</time></trkpt><trkpt lat="43.97990983040502" lon="10.144644686350787"><ele>3.0</ele><time>2026-04-05T17:20:53Z</time></trkpt><trkpt lat="43.97997478035315" lon="10.144684273533528"><ele>3.0</ele><time>2026-04-05T17:21:06Z</time></trkpt><trkpt lat="43.98002564301793" lon="10.144749062048367"><ele>3.0</ele><time>2026-04-05T17:21:12Z</time></trkpt><trkpt lat="43.98007222184473" lon="10.144829133983178"><ele>3.0</ele><time>2026-04-05T17:21:18Z</time></trkpt><trkpt lat="43.98012908822535" lon="10.144882076971749"><ele>2.9999999999999996</ele><time>2026-04-05T17:21:23Z</time></trkpt><trkpt lat="43.98018529904245" lon="10.144952686776536"><ele>3.0</ele><time>2026-04-05T17:21:29Z</time></trkpt><trkpt lat="43.98023684470955" lon="10.145017421595782"><ele>2.8571428571428568</ele><time>2026-04-05T17:21:36Z</time></trkpt><trkpt lat="43.98029003404633" lon="10.145065054946791"><ele>2.7142857142857144</ele><time>2026-04-05T17:21:41Z</time></trkpt><trkpt lat="43.98033613877042" lon="10.145132574161698"><ele>2.571428571428571</ele><time>2026-04-05T17:21:47Z</time></trkpt><trkpt lat="43.9803906927317" lon="10.145190279251425"><ele>2.4285714285714284</ele><time>2026-04-05T17:21:53Z</time></trkpt><trkpt lat="43.98043373267895" lon="10.145255705891515"><ele>2.2857142857142856</ele><time>2026-04-05T17:21:58Z</time></trkpt><trkpt lat="43.980475488905626" lon="10.14533124258046"><ele>2.142857142857143</ele><time>2026-04-05T17:22:04Z</time></trkpt><trkpt lat="43.98051165121283" lon="10.145407087819732"><ele>2.0</ele><time>2026-04-05T17:22:10Z</time></trkpt><trkpt lat="43.98055714267089" lon="10.145490244392295"><ele>2.0</ele><time>2026-04-05T17:22:16Z</time></trkpt><trkpt lat="43.98059633675484" lon="10.145568179571052"><ele>1.9999999999999998</ele><time>2026-04-05T17:22:21Z</time></trkpt><trkpt lat="43.98065234257481" lon="10.145609749826786"><ele>2.0</ele><time>2026-04-05T17:22:27Z</time></trkpt><trkpt lat="43.98070029281557" lon="10.145673953402449"><ele>2.0</ele><time>2026-04-05T17:22:33Z</time></trkpt><trkpt lat="43.98074435107027" lon="10.14574434214309"><ele>1.9999999999999998</ele><time>2026-04-05T17:22:38Z</time></trkpt><trkpt lat="43.98080271505228" lon="10.145812060728842"><ele>2.0</ele><time>2026-04-05T17:22:44Z</time></trkpt><trkpt lat="43.98084189488092" lon="10.145888421450822"><ele>2.0</ele><time>2026-04-05T17:22:49Z</time></trkpt><trkpt lat="43.98089421247283" lon="10.145962290569733"><ele>2.142857142857143</ele><time>2026-04-05T17:22:55Z</time></trkpt><trkpt lat="43.98094870373304" lon="10.146021297136508"><ele>2.2857142857142856</ele><time>2026-04-05T17:23:01Z</time></trkpt><trkpt lat="43.98099094993473" lon="10.14608801617677"><ele>2.4285714285714284</ele><time>2026-04-05T17:23:06Z</time></trkpt><trkpt lat="43.98102998633423" lon="10.146160413225026"><ele>2.571428571428571</ele><time>2026-04-05T17:23:11Z</time></trkpt><trkpt lat="43.98107445724042" lon="10.146232330881325"><ele>2.7142857142857144</ele><time>2026-04-05T17:23:17Z</time></trkpt><trkpt lat="43.98112506584329" lon="10.146292550490813"><ele>2.8571428571428568</ele><time>2026-04-05T17:23:23Z</time></trkpt><trkpt lat="43.98116329668817" lon="10.14637448407106"><ele>3.0</ele><time>2026-04-05T17:23:29Z</time></trkpt><trkpt lat="43.98120422942902" lon="10.146449710314554"><ele>2.9999999999999996</ele><time>2026-04-05T17:23:35Z</time></trkpt><trkpt lat="43.98125314142616" lon="10.146514780387042"><ele>3.0</ele><time>2026-04-05T17:23:41Z</time></trkpt><trkpt lat="43.98128850679197" lon="10.146603671912214"><ele>3.0</ele><time>2026-04-05T17:23:47Z</time></trkpt><trkpt lat="43.981334964132465" lon="10.146680192042275"><ele>3.0</ele><time>2026-04-05T17:23:53Z</time></trkpt><trkpt lat="43.98138198311933" lon="10.14674338965089"><ele>3.0</ele><time>2026-04-05T17:23:58Z</time></trkpt><trkpt lat="43.98142479538195" lon="10.146824289553768"><ele>2.9999999999999996</ele><time>2026-04-05T17:24:04Z</time></trkpt><trkpt lat="43.981468675224086" lon="10.146892143511176"><ele>3.0</ele><time>2026-04-05T17:24:10Z</time></trkpt><trkpt lat="43.98152500208444" lon="10.146958929492211"><ele>2.9999999999999996</ele><time>2026-04-05T17:24:16Z</time></trkpt><trkpt lat="43.98153213252986" lon="10.14706230437325"><ele>3.0</ele><time>2026-04-05T17:24:21Z</time></trkpt><trkpt lat="43.98157715314458" lon="10.147132172123538"><ele>3.0</ele><time>2026-04-05T17:24:27Z</time></trkpt><trkpt lat="43.98163585969372" lon="10.147187117914891"><ele>3.0</ele><time>2026-04-05T17:24:33Z</time></trkpt><trkpt lat="43.98167827581808" lon="10.1472598082125"><ele>3.0</ele><time>2026-04-05T17:24:39Z</time></trkpt><trkpt lat="43.981718719480725" lon="10.147340306649948"><ele>2.9999999999999996</ele><time>2026-04-05T17:24:45Z</time></trkpt><trkpt lat="43.981755754365224" lon="10.14741469917174"><ele>3.0</ele><time>2026-04-05T17:24:51Z</time></trkpt><trkpt lat="43.98181627481851" lon="10.147443547272582"><ele>3.2857142857142856</ele><time>2026-04-05T17:24:57Z</time></trkpt><trkpt lat="43.981884215684374" lon="10.14743575777426"><ele>3.571428571428571</ele><time>2026-04-05T17:25:03Z</time></trkpt><trkpt lat="43.98194196273104" lon="10.147373688830362"><ele>3.8571428571428568</ele><time>2026-04-05T17:25:12Z</time></trkpt><trkpt lat="43.98198161030561" lon="10.147280728528719"><ele>4.142857142857142</ele><time>2026-04-05T17:25:16Z</time></trkpt><trkpt lat="43.98200492031898" lon="10.147186009321201"><ele>4.428571428571429</ele><time>2026-04-05T17:25:21Z</time></trkpt><trkpt lat="43.98202617846566" lon="10.147094626282193"><ele>4.714285714285714</ele><time>2026-04-05T17:25:27Z</time></trkpt><trkpt lat="43.98206717417413" lon="10.147027936604326"><ele>5.0</ele><time>2026-04-05T17:25:32Z</time></trkpt><trkpt lat="43.982115550819586" lon="10.14697098199726"><ele>5.0</ele><time>2026-04-05T17:25:37Z</time></trkpt><trkpt lat="43.98218315177264" lon="10.146930931273495"><ele>5.0</ele><time>2026-04-05T17:25:43Z</time></trkpt><trkpt lat="43.98223738434692" lon="10.146855908896342"><ele>5.0</ele><time>2026-04-05T17:25:49Z</time></trkpt><trkpt lat="43.982278254491895" lon="10.146785615982616"><ele>5.0</ele><time>2026-04-05T17:25:55Z</time></trkpt><trkpt lat="43.982309653301975" lon="10.146708319326997"><ele>5.0</ele><time>2026-04-05T17:26:00Z</time></trkpt><trkpt lat="43.98236529030443" lon="10.146660352603037"><ele>5.0</ele><time>2026-04-05T17:26:05Z</time></trkpt><trkpt lat="43.98237814865926" lon="10.146573005149225"><ele>5.0</ele><time>2026-04-05T17:26:11Z</time></trkpt><trkpt lat="43.9824195783461" lon="10.1465012342643"><ele>5.0</ele><time>2026-04-05T17:26:17Z</time></trkpt><trkpt lat="43.98246311002989" lon="10.146435058091969"><ele>5.0</ele><time>2026-04-05T17:26:23Z</time></trkpt><trkpt lat="43.98253583923272" lon="10.146420672152015"><ele>5.0</ele><time>2026-04-05T17:26:32Z</time></trkpt><trkpt lat="43.982604888043205" lon="10.146458383214958"><ele>5.0</ele><time>2026-04-05T17:26:39Z</time></trkpt><trkpt lat="43.9826553863473" lon="10.146510638229197"><ele>5.0</ele><time>2026-04-05T17:26:46Z</time></trkpt><trkpt lat="43.982722556196116" lon="10.146497312927297"><ele>5.0</ele><time>2026-04-05T17:27:05Z</time></trkpt><trkpt lat="43.98277300933868" lon="10.146436540723531"><ele>5.0</ele><time>2026-04-05T17:27:16Z</time></trkpt><trkpt lat="43.98281794704281" lon="10.14635743292668"><ele>4.666666666666667</ele><time>2026-04-05T17:27:48Z</time></trkpt><trkpt lat="43.98287852270702" lon="10.146115892490593"><ele>4.333333333333333</ele><time>2026-04-05T17:29:16Z</time></trkpt><trkpt lat="43.98278075516854" lon="10.146280766614156"><ele>4.0</ele><time>2026-04-05T17:29:18Z</time></trkpt><trkpt lat="43.9826776127189" lon="10.146127793407626"><ele>3.9999999999999996</ele><time>2026-04-05T17:29:19Z</time></trkpt><trkpt lat="43.98271296227309" lon="10.1462048460607"><ele>4.0</ele><time>2026-04-05T17:29:24Z</time></trkpt><trkpt lat="43.98266320189533" lon="10.146111313539821"><ele>4.0</ele><time>2026-04-05T17:29:34Z</time></trkpt><trkpt lat="43.98276761415539" lon="10.146117693794581"><ele>4.0</ele><time>2026-04-05T17:30:11Z</time></trkpt><trkpt lat="43.98281287811675" lon="10.14620377998257"><ele>3.9999999999999996</ele><time>2026-04-05T17:30:13Z</time></trkpt><trkpt lat="43.98271959522488" lon="10.146153418589742"><ele>4.0</ele><time>2026-04-05T17:30:49Z</time></trkpt><trkpt lat="43.98277854198943" lon="10.146099423885126"><ele>4.0</ele><time>2026-04-05T17:33:18Z</time></trkpt><trkpt lat="43.982864756814635" lon="10.146149167036617"><ele>4.0</ele><time>2026-04-05T17:33:39Z</time></trkpt><trkpt lat="43.98296715544744" lon="10.146234485857997"><ele>4.0</ele><time>2026-04-05T17:33:41Z</time></trkpt><trkpt lat="43.982883435623506" lon="10.146171335295964"><ele>4.0</ele><time>2026-04-05T17:33:48Z</time></trkpt><trkpt lat="43.98281223059971" lon="10.14614435367832"><ele>4.0</ele><time>2026-04-05T17:33:51Z</time></trkpt><trkpt lat="43.98287707335856" lon="10.146198047875426"><ele>4.0</ele><time>2026-04-05T17:34:03Z</time></trkpt><trkpt lat="43.98296291624252" lon="10.146254139242425"><ele>4.0</ele><time>2026-04-05T17:34:17Z</time></trkpt></trkseg></trk></gpx>